Observation data for Canadian on 06/15/2019      Previous  Date  Next       Current Mesonet Observations  Soil Data  Daily Summary Page  Observations in Plain Language
KCA1 150500Z 18018KT 26/18 A2966 RMK A01 T02610182  RH  062%=      5-min Rain = 0
KCA1 150501Z 18022G28KT 26/18 A2966 RMK A01 T02610182  RH  062%=      5-min Rain = 0
KCA1 150502Z 17020G28KT 26/18 A2966 RMK A01 T02620182  RH  062%=      5-min Rain = 0
KCA1 150503Z 17023G28KT 26/18 A2966 RMK A01 T02620182  RH  061%=      5-min Rain = 0
KCA1 150504Z 18021G26KT 26/18 A2966 RMK A01 T02630182  RH  061%=      5-min Rain = 0
KCA1 150505Z 18020G30KT 26/18 A2966 RMK A01 T02630183  RH  061%=      5-min Rain = 0
KCA1 150506Z 18021G27KT 26/18 A2966 RMK A01 T02630183  RH  061%=      5-min Rain = 0
KCA1 150507Z 17020G26KT 26/18 A2967 RMK A01 T02630182  RH  061%=      5-min Rain = 0
KCA1 150508Z 18022KT 26/18 A2967 RMK A01 T02630182  RH  061%=      5-min Rain = 0
KCA1 150509Z 18021G28KT 26/18 A2967 RMK A01 T02630183  RH  061%=      5-min Rain = 0
KCA1 150510Z 18020G27KT 26/18 A2966 RMK A01 T02630182  RH  061%=      5-min Rain = 0
KCA1 150511Z 18019KT 26/18 A2966 RMK A01 T02640183  RH  061%=      5-min Rain = 0
KCA1 150512Z 18022KT 26/18 A2966 RMK A01 T02640183  RH  061%=      5-min Rain = 0
KCA1 150513Z 17023G29KT 26/18 A2966 RMK A01 T02640183  RH  061%=      5-min Rain = 0
KCA1 150514Z 18020KT 26/18 A2966 RMK A01 T02640182  RH  061%=      5-min Rain = 0
KCA1 150515Z 18024G29KT 26/18 A2966 RMK A01 T02640182  RH  061%=      5-min Rain = 0
KCA1 150516Z 18024G33KT 27/18 A2966 RMK A01 T02650182  RH  060%=      5-min Rain = 0
KCA1 150517Z 18025G33KT 27/18 A2966 RMK A01 T02660182  RH  060%=      5-min Rain = 0
KCA1 150518Z 18020G26KT 27/18 A2966 RMK A01 T02660182  RH  060%=      5-min Rain = 0
KCA1 150519Z 18022G28KT 27/18 A2966 RMK A01 T02660183  RH  060%=      5-min Rain = 0
KCA1 150520Z 18023G28KT 27/18 A2967 RMK A01 T02650183  RH  061%=      5-min Rain = 0
KCA1 150521Z 18022G27KT 27/18 A2967 RMK A01 T02650183  RH  061%=      5-min Rain = 0
KCA1 150522Z 19020G25KT 27/18 A2967 RMK A01 T02650183  RH  061%=      5-min Rain = 0
KCA1 150523Z 18022KT 27/18 A2967 RMK A01 T02650183  RH  061%=      5-min Rain = 0
KCA1 150524Z 18023KT 27/18 A2967 RMK A01 T02650183  RH  061%=      5-min Rain = 0
KCA1 150525Z 18020KT 27/18 A2967 RMK A01 T02650183  RH  061%=      5-min Rain = 0
KCA1 150526Z 18023KT 27/18 A2967 RMK A01 T02650183  RH  061%=      5-min Rain = 0
KCA1 150527Z 18023KT 27/18 A2967 RMK A01 T02650183  RH  061%=      5-min Rain = 0
KCA1 150528Z 18021G26KT 27/18 A2967 RMK A01 T02650183  RH  061%=      5-min Rain = 0
KCA1 150529Z 18023KT 26/18 A2967 RMK A01 T02640183  RH  061%=      5-min Rain = 0
KCA1 150530Z 18018KT 26/18 A2967 RMK A01 T02640183  RH  061%=      5-min Rain = 0
KCA1 150531Z 18016KT 26/18 A2967 RMK A01 T02640183  RH  061%=      5-min Rain = 0
KCA1 150532Z 17018G23KT 26/18 A2967 RMK A01 T02640183  RH  061%=      5-min Rain = 0
KCA1 150533Z 18018G23KT 26/18 A2967 RMK A01 T02630183  RH  061%=      5-min Rain = 0
KCA1 150534Z 18017KT 26/18 A2968 RMK A01 T02630183  RH  061%=      5-min Rain = 0
KCA1 150535Z 20012G18KT 26/18 A2969 RMK A01 T02630183  RH  061%=      5-min Rain = 0
KCA1 150536Z 22010KT 26/18 A297 RMK A01 T02630183  RH  061%=      5-min Rain = 0
KCA1 150537Z 28012KT 26/18 A2972 RMK A01 T02630183  RH  061%=      5-min Rain = 0
KCA1 150538Z 31017G22KT 26/18 A2974 RMK A01 T02630184  RH  062%=      5-min Rain = 0
KCA1 150539Z 32015G20KT 26/18 A2975 RMK A01 T02620184  RH  062%=      5-min Rain = 0
KCA1 150540Z 34015KT 26/18 A2975 RMK A01 T02620184  RH  062%=      5-min Rain = 0
KCA1 150541Z 34013G19KT 26/18 A2975 RMK A01 T02610184  RH  062%=      5-min Rain = 0
KCA1 150542Z 35012KT 26/18 A2975 RMK A01 T02600184  RH  063%=      5-min Rain = 0
KCA1 150543Z 36012KT 26/18 A2975 RMK A01 T02580184  RH  064%=      5-min Rain = 0
KCA1 150544Z 36013G19KT 26/18 A2974 RMK A01 T02560184  RH  064%=      5-min Rain = 0
KCA1 150545Z 34015KT 26/18 A2974 RMK A01 T02560184  RH  065%=      5-min Rain = 0
KCA1 150546Z 34016KT 26/18 A2974 RMK A01 T02570183  RH  064%=      5-min Rain = 0
KCA1 150547Z 33015G21KT 26/18 A2974 RMK A01 T02610182  RH  062%=      5-min Rain = 0
KCA1 150548Z 34020G29KT 26/18 A2974 RMK A01 T02640182  RH  061%=      5-min Rain = 0
KCA1 150549Z 34024G30KT 27/18 A2974 RMK A01 T02660180  RH  059%=      5-min Rain = 0
KCA1 150550Z 31021G32KT 27/18 A2974 RMK A01 T02700177  RH  057%=      5-min Rain = 0
KCA1 150551Z 32011KT 27/17 A2974 RMK A01 T02730173  RH  054%=      5-min Rain = 0
KCA1 150552Z 29018G25KT 28/17 A2974 RMK A01 T02750174  RH  054%=      5-min Rain = 0
KCA1 150553Z 29014G22KT 28/18 A2974 RMK A01 T02750177  RH  055%=      5-min Rain = 0
KCA1 150554Z 26018G27KT 28/18 A2974 RMK A01 T02750177  RH  055%=      5-min Rain = 0
KCA1 150555Z 21016G23KT 28/18 A2973 RMK A01 T02750178  RH  055%=      5-min Rain = 0
KCA1 150556Z 18015G24KT 28/18 A2972 RMK A01 T02750177  RH  055%=      5-min Rain = 0
KCA1 150557Z 21015KT 28/18 A2971 RMK A01 T02750177  RH  055%=      5-min Rain = 0
KCA1 150558Z 20014G21KT 28/18 A2971 RMK A01 T02750175  RH  055%=      5-min Rain = 0
KCA1 150559Z 20014G19KT 28/18 A2971 RMK A01 T02750178  RH  056%=      5-min Rain = 0
KCA1 150600Z 20015KT 27/18 A2971 RMK A01 T02730178  RH  056%=      5-min Rain = 0
KCA1 150601Z 18013KT 27/18 A2971 RMK A01 T02710178  RH  057%=      5-min Rain = 0
KCA1 150602Z 19012KT 27/18 A2971 RMK A01 T02700178  RH  057%=      5-min Rain = 0
KCA1 150603Z 19016KT 27/18 A2972 RMK A01 T02700177  RH  057%=      5-min Rain = 0
KCA1 150604Z 21017KT 27/18 A2972 RMK A01 T02700177  RH  057%=      5-min Rain = 0
KCA1 150605Z 21013KT 27/18 A2973 RMK A01 T02700175  RH  056%=      5-min Rain = 0
KCA1 150606Z 21013KT 27/18 A2973 RMK A01 T02710175  RH  056%=      5-min Rain = 0
KCA1 150607Z 22016KT 27/17 A2973 RMK A01 T02720173  RH  055%=      5-min Rain = 0
KCA1 150608Z 21015G21KT 27/17 A2973 RMK A01 T02730170  RH  053%=      5-min Rain = 0
KCA1 150609Z 20013KT 28/17 A2973 RMK A01 T02750171  RH  053%=      5-min Rain = 0
KCA1 150610Z 20014G19KT 28/17 A2972 RMK A01 T02750172  RH  054%=      5-min Rain = 0
KCA1 150611Z 19015KT 27/17 A2972 RMK A01 T02740173  RH  054%=      5-min Rain = 0
KCA1 150612Z 17011KT 27/17 A2971 RMK A01 T02740173  RH  054%=      5-min Rain = 0
KCA1 150613Z 16012KT 27/17 A297 RMK A01 T02730174  RH  055%=      5-min Rain = 0
KCA1 150614Z 15013KT 27/17 A297 RMK A01 T02710173  RH  055%=      5-min Rain = 0
KCA1 150615Z 15012KT 27/17 A297 RMK A01 T02710173  RH  055%=      5-min Rain = 0
KCA1 150616Z 15008KT 27/17 A2969 RMK A01 T02700174  RH  056%=      5-min Rain = 0
KCA1 150617Z 14006KT 27/18 A297 RMK A01 T02700175  RH  056%=      5-min Rain = 0
KCA1 150618Z 18005KT 27/18 A2971 RMK A01 T02680175  RH  057%=      5-min Rain = 0
KCA1 150619Z 28004KT 27/18 A2972 RMK A01 T02670175  RH  057%=      5-min Rain = 0
KCA1 150620Z 30007KT 27/17 A2973 RMK A01 T02660174  RH  057%=      5-min Rain = 0
KCA1 150621Z 30008KT 27/17 A2973 RMK A01 T02660173  RH  057%=      5-min Rain = 0
KCA1 150622Z 31012KT 27/17 A2973 RMK A01 T02660173  RH  057%=      5-min Rain = 0
KCA1 150623Z 33015KT 27/18 A2973 RMK A01 T02660175  RH  057%=      5-min Rain = 0
KCA1 150624Z 34012KT 27/18 A2973 RMK A01 T02660177  RH  058%=      5-min Rain = 0
KCA1 150625Z 35009KT 27/18 A2973 RMK A01 T02650178  RH  059%=      5-min Rain = 0
KCA1 150626Z 01009KT 26/18 A2973 RMK A01 T02640178  RH  059%=      5-min Rain = 0
KCA1 150627Z 02008KT 26/18 A2973 RMK A01 T02630177  RH  059%=      5-min Rain = 0
KCA1 150628Z 02004KT 26/18 A2973 RMK A01 T02630176  RH  059%=      5-min Rain = 0
KCA1 150629Z 05003KT 26/18 A2973 RMK A01 T02630175  RH  058%=      5-min Rain = 0
KCA1 150630Z 06004KT 26/17 A2972 RMK A01 T02640174  RH  057%=      5-min Rain = 0
KCA1 150631Z 06004KT 27/17 A2972 RMK A01 T02660173  RH  057%=      5-min Rain = 0
KCA1 150632Z 08002KT 27/17 A2972 RMK A01 T02660173  RH  056%=      5-min Rain = 0
KCA1 150633Z 07002KT 27/17 A2972 RMK A01 T02660173  RH  056%=      5-min Rain = 0
KCA1 150634Z 08004KT 27/17 A2972 RMK A01 T02660174  RH  057%=      5-min Rain = 0
KCA1 150635Z 06002KT 27/17 A2972 RMK A01 T02660171  RH  056%=      5-min Rain = 0
KCA1 150636Z 05003KT 27/17 A2971 RMK A01 T02680171  RH  055%=      5-min Rain = 0
KCA1 150637Z 09005KT 27/17 A2971 RMK A01 T02690174  RH  056%=      5-min Rain = 0
KCA1 150638Z 15003KT 27/17 A2972 RMK A01 T02670172  RH  056%=      5-min Rain = 0
KCA1 150639Z 19005KT 27/17 A2972 RMK A01 T02670172  RH  056%=      5-min Rain = 0
KCA1 150640Z 14004KT 27/17 A2972 RMK A01 T02670171  RH  056%=      5-min Rain = 0
KCA1 150641Z 11002KT 27/17 A2971 RMK A01 T02670172  RH  056%=      5-min Rain = 0
KCA1 150642Z 08002KT 27/17 A2971 RMK A01 T02670171  RH  056%=      5-min Rain = 0
KCA1 150643Z 10003KT 27/17 A2972 RMK A01 T02680170  RH  055%=      5-min Rain = 0
KCA1 150644Z 08002KT 27/17 A2972 RMK A01 T02700171  RH  055%=      5-min Rain = 0
KCA1 150645Z 04003KT 27/17 A2972 RMK A01 T02710171  RH  054%=      5-min Rain = 0
KCA1 150646Z 02004KT 27/17 A2972 RMK A01 T02700172  RH  055%=      5-min Rain = 0
KCA1 150647Z 01004KT 27/17 A2972 RMK A01 T02670173  RH  056%=      5-min Rain = 0
KCA1 150648Z 01004KT 27/17 A2972 RMK A01 T02650172  RH  057%=      5-min Rain = 0
KCA1 150649Z 02004KT 26/17 A2972 RMK A01 T02630171  RH  057%=      5-min Rain = 0
KCA1 150650Z 36004KT 26/17 A2972 RMK A01 T02640171  RH  057%=      5-min Rain = 0
KCA1 150651Z 34004KT 27/17 A2973 RMK A01 T02650171  RH  056%=      5-min Rain = 0
KCA1 150652Z 30004KT 27/17 A2973 RMK A01 T02660171  RH  056%=      5-min Rain = 0
KCA1 150653Z 30005KT 27/17 A2973 RMK A01 T02660172  RH  056%=      5-min Rain = 0
KCA1 150654Z 31005KT 27/17 A2973 RMK A01 T02670170  RH  055%=      5-min Rain = 0
KCA1 150655Z 30002KT 27/17 A2973 RMK A01 T02710171  RH  054%=      5-min Rain = 0
KCA1 150656Z 30003KT 27/17 A2973 RMK A01 T02730170  RH  054%=      5-min Rain = 0
KCA1 150657Z 28002KT 28/17 A2973 RMK A01 T02750170  RH  053%=      5-min Rain = 0
KCA1 150658Z 25003KT 28/17 A2973 RMK A01 T02760170  RH  052%=      5-min Rain = 0
KCA1 150659Z 21002KT 28/17 A2973 RMK A01 T02770172  RH  053%=      5-min Rain = 0
KCA1 150700Z 20003KT 28/17 A2973 RMK A01 T02760172  RH  053%=      5-min Rain = 0
KCA1 150701Z 19005KT 27/17 A2972 RMK A01 T02740172  RH  054%=      5-min Rain = 0
KCA1 150702Z 19005KT 27/17 A2972 RMK A01 T02710171  RH  054%=      5-min Rain = 0
KCA1 150703Z 18008KT 27/17 A2972 RMK A01 T02700172  RH  055%=      5-min Rain = 0
KCA1 150704Z 18010KT 27/17 A2972 RMK A01 T02680171  RH  055%=      5-min Rain = 0
KCA1 150705Z 18011KT 27/17 A2972 RMK A01 T02680171  RH  055%=      5-min Rain = 0
KCA1 150706Z 18010KT 27/17 A2972 RMK A01 T02690170  RH  055%=      5-min Rain = 0
KCA1 150707Z 18009KT 27/17 A2972 RMK A01 T02690171  RH  055%=      5-min Rain = 0
KCA1 150708Z 17009KT 27/17 A2972 RMK A01 T02690172  RH  055%=      5-min Rain = 0
KCA1 150709Z 16007KT 27/17 A2972 RMK A01 T02680172  RH  056%=      5-min Rain = 0
KCA1 150710Z 15007KT 27/17 A2972 RMK A01 T02660172  RH  056%=      5-min Rain = 0
KCA1 150711Z 16007KT 27/17 A2972 RMK A01 T02650172  RH  057%=      5-min Rain = 0
KCA1 150712Z 15007KT 26/17 A2972 RMK A01 T02640172  RH  057%=      5-min Rain = 0
KCA1 150713Z 15005KT 26/17 A2972 RMK A01 T02630173  RH  058%=      5-min Rain = 0
KCA1 150714Z 14003KT 26/17 A2972 RMK A01 T02620173  RH  058%=      5-min Rain = 0
KCA1 150715Z 15005KT 26/17 A2972 RMK A01 T02610172  RH  058%=      5-min Rain = 0
KCA1 150716Z 18006KT 26/17 A2972 RMK A01 T02610172  RH  058%=      5-min Rain = 0
KCA1 150717Z 16004KT 26/17 A2972 RMK A01 T02620171  RH  057%=      5-min Rain = 0
KCA1 150718Z 14006G11KT 26/17 A2972 RMK A01 T02630171  RH  057%=      5-min Rain = 0
KCA1 150719Z 15004KT 26/17 A2972 RMK A01 T02640171  RH  056%=      5-min Rain = 0
KCA1 150720Z 11003KT 27/17 A2973 RMK A01 T02660171  RH  056%=      5-min Rain = 0
KCA1 150721Z 06000KT 27/17 A2973 RMK A01 T02670171  RH  056%=      5-min Rain = 0
KCA1 150722Z 31002KT 27/17 A2973 RMK A01 T02660172  RH  056%=      5-min Rain = 0
KCA1 150723Z 28003KT 27/17 A2973 RMK A01 T02650172  RH  057%=      5-min Rain = 0
KCA1 150724Z 22003KT 27/17 A2973 RMK A01 T02650171  RH  056%=      5-min Rain = 0
KCA1 150725Z 20001KT 27/17 A2973 RMK A01 T02650170  RH  056%=      5-min Rain = 0
KCA1 150726Z 09000KT 27/17 A2973 RMK A01 T02660170  RH  056%=      5-min Rain = 0
KCA1 150727Z 02004KT 27/17 A2973 RMK A01 T02670171  RH  056%=      5-min Rain = 0
KCA1 150728Z 35002KT 27/17 A2973 RMK A01 T02670171  RH  056%=      5-min Rain = 0
KCA1 150729Z 36003KT 27/17 A2973 RMK A01 T02680172  RH  056%=      5-min Rain = 0
KCA1 150730Z 05002KT 27/17 A2974 RMK A01 T02670173  RH  057%=      5-min Rain = 0
KCA1 150731Z 08003KT 26/17 A2974 RMK A01 T02640173  RH  057%=      5-min Rain = 0
KCA1 150732Z 07005KT 26/17 A2974 RMK A01 T02600173  RH  059%=      5-min Rain = 0
KCA1 150733Z 07003KT 26/17 A2974 RMK A01 T02580173  RH  060%=      5-min Rain = 0
KCA1 150734Z 05005KT 26/17 A2974 RMK A01 T02550172  RH  060%=      5-min Rain = 0
KCA1 150735Z 07005KT 26/17 A2974 RMK A01 T02550172  RH  060%=      5-min Rain = 0
KCA1 150736Z 06003KT 26/17 A2974 RMK A01 T02560172  RH  060%=      5-min Rain = 0
KCA1 150737Z 06003KT 26/17 A2974 RMK A01 T02570172  RH  060%=      5-min Rain = 0
KCA1 150738Z 09004KT 26/17 A2974 RMK A01 T02570173  RH  060%=      5-min Rain = 0
KCA1 150739Z 09004KT 26/17 A2974 RMK A01 T02570174  RH  060%=      5-min Rain = 0
KCA1 150740Z 12004KT 26/18 A2974 RMK A01 T02560175  RH  061%=      5-min Rain = 0
KCA1 150741Z 10005KT 25/18 A2974 RMK A01 T02540175  RH  062%=      5-min Rain = 0
KCA1 150742Z 12006KT 25/17 A2974 RMK A01 T02510173  RH  062%=      5-min Rain = 0
KCA1 150743Z 12008KT 25/17 A2974 RMK A01 T02500173  RH  062%=      5-min Rain = 0
KCA1 150744Z 10009KT 25/17 A2974 RMK A01 T02490173  RH  063%=      5-min Rain = 0
KCA1 150745Z 13007KT 25/17 A2974 RMK A01 T02510172  RH  061%=      5-min Rain = 0
KCA1 150746Z 16004KT 26/17 A2974 RMK A01 T02570172  RH  060%=      5-min Rain = 0
KCA1 150747Z 13007KT 26/17 A2974 RMK A01 T02600173  RH  059%=      5-min Rain = 0
KCA1 150748Z 13010KT 26/17 A2974 RMK A01 T02610173  RH  059%=      5-min Rain = 0
KCA1 150749Z 12009KT 26/17 A2974 RMK A01 T02610174  RH  059%=      5-min Rain = 0
KCA1 150750Z 13008KT 26/17 A2974 RMK A01 T02590174  RH  059%=      5-min Rain = 0
KCA1 150751Z 16009KT 26/17 A2973 RMK A01 T02570174  RH  060%=      5-min Rain = 0
KCA1 150752Z 16008KT 26/17 A2973 RMK A01 T02560173  RH  060%=      5-min Rain = 0
KCA1 150753Z 15006KT 26/17 A2974 RMK A01 T02570174  RH  060%=      5-min Rain = 0
KCA1 150754Z 15007KT 26/17 A2974 RMK A01 T02570174  RH  060%=      5-min Rain = 0
KCA1 150755Z 17008KT 26/17 A2974 RMK A01 T02570174  RH  060%=      5-min Rain = 0
KCA1 150756Z 15006KT 26/17 A2974 RMK A01 T02560174  RH  060%=      5-min Rain = 0
KCA1 150757Z 15005G10KT 26/17 A2974 RMK A01 T02580174  RH  060%=      5-min Rain = 0
KCA1 150758Z 14007KT 26/17 A2974 RMK A01 T02590174  RH  059%=      5-min Rain = 0
KCA1 150759Z 13005KT 26/17 A2974 RMK A01 T02590174  RH  059%=      5-min Rain = 0
KCA1 150800Z 09005KT 26/17 A2974 RMK A01 T02600174  RH  059%=      5-min Rain = 0
KCA1 150801Z 14003KT 26/18 A2974 RMK A01 T02590175  RH  060%=      5-min Rain = 0
KCA1 150802Z 14001KT 26/18 A2974 RMK A01 T02570175  RH  061%=      5-min Rain = 0
KCA1 150803Z 09001KT 26/17 A2974 RMK A01 T02550174  RH  061%=      5-min Rain = 0
KCA1 150804Z 13004KT 26/17 A2975 RMK A01 T02550174  RH  061%=      5-min Rain = 0
KCA1 150805Z 14006KT 26/18 A2975 RMK A01 T02550175  RH  061%=      5-min Rain = 0
KCA1 150806Z 11006KT 26/18 A2975 RMK A01 T02560175  RH  061%=      5-min Rain = 0
KCA1 150807Z 14004KT 26/18 A2975 RMK A01 T02560175  RH  061%=      5-min Rain = 0
KCA1 150808Z 12003KT 26/18 A2975 RMK A01 T02560175  RH  061%=      5-min Rain = 0
KCA1 150809Z 17003KT 26/18 A2975 RMK A01 T02560175  RH  061%=      5-min Rain = 0
KCA1 150810Z 18005KT 26/18 A2975 RMK A01 T02570175  RH  061%=      5-min Rain = 0
KCA1 150811Z 13002KT 26/18 A2975 RMK A01 T02600176  RH  060%=      5-min Rain = 0
KCA1 150812Z 13003KT 26/18 A2975 RMK A01 T02620175  RH  059%=      5-min Rain = 0
KCA1 150813Z 09003KT 26/18 A2975 RMK A01 T02620176  RH  059%=      5-min Rain = 0
KCA1 150814Z 11003KT 26/18 A2975 RMK A01 T02600176  RH  060%=      5-min Rain = 0
KCA1 150815Z 12003KT 26/18 A2975 RMK A01 T02580176  RH  061%=      5-min Rain = 0
KCA1 150816Z 14004KT 26/18 A2975 RMK A01 T02560176  RH  061%=      5-min Rain = 0
KCA1 150817Z 14006KT 25/18 A2975 RMK A01 T02540176  RH  062%=      5-min Rain = 0
KCA1 150818Z 12007KT 25/18 A2975 RMK A01 T02540176  RH  062%=      5-min Rain = 0
KCA1 150819Z 12008KT 25/18 A2974 RMK A01 T02530176  RH  062%=      5-min Rain = 0
KCA1 150820Z 14006KT 25/18 A2974 RMK A01 T02540176  RH  062%=      5-min Rain = 0
KCA1 150821Z 12004KT 25/18 A2974 RMK A01 T02540176  RH  062%=      5-min Rain = 0
KCA1 150822Z 07004KT 25/18 A2974 RMK A01 T02530177  RH  063%=      5-min Rain = 0
KCA1 150823Z 06003KT 25/18 A2974 RMK A01 T02500178  RH  064%=      5-min Rain = 0
KCA1 150824Z 05002G7KT 25/18 A2974 RMK A01 T02470178  RH  066%=      5-min Rain = 0
KCA1 150825Z 06008KT 24/18 A2974 RMK A01 T02440178  RH  067%=      5-min Rain = 0
KCA1 150826Z 06008KT 24/18 A2974 RMK A01 T02400177  RH  068%=      5-min Rain = 0
KCA1 150827Z 08006G11KT 24/18 A2974 RMK A01 T02390177  RH  068%=      5-min Rain = 0
KCA1 150828Z 07010KT 24/18 A2974 RMK A01 T02390177  RH  068%=      5-min Rain = 0
KCA1 150829Z 07009KT 24/18 A2974 RMK A01 T02380178  RH  069%=      5-min Rain = 0
KCA1 150830Z 08007KT 24/18 A2974 RMK A01 T02360178  RH  070%=      5-min Rain = 0
KCA1 150831Z 09007KT 23/18 A2974 RMK A01 T02340179  RH  071%=      5-min Rain = 0
KCA1 150832Z 10009KT 23/18 A2974 RMK A01 T02330179  RH  071%=      5-min Rain = 0
KCA1 150833Z 09009KT 24/18 A2974 RMK A01 T02350179  RH  070%=      5-min Rain = 0
KCA1 150834Z 09009KT 24/18 A2974 RMK A01 T02370179  RH  070%=      5-min Rain = 0
KCA1 150835Z 12008KT 24/18 A2974 RMK A01 T02370179  RH  070%=      5-min Rain = 0
KCA1 150836Z 12009KT 24/18 A2974 RMK A01 T02380179  RH  069%=      5-min Rain = 0
KCA1 150837Z 11008KT 24/18 A2973 RMK A01 T02400179  RH  069%=      5-min Rain = 0
KCA1 150838Z 11009KT 24/18 A2974 RMK A01 T02410179  RH  068%=      5-min Rain = 0
KCA1 150839Z 11008KT 24/18 A2974 RMK A01 T02400179  RH  068%=      5-min Rain = 0
KCA1 150840Z 10007KT 24/18 A2974 RMK A01 T02400179  RH  069%=      5-min Rain = 0
KCA1 150841Z 11007KT 24/18 A2974 RMK A01 T02380179  RH  070%=      5-min Rain = 0
KCA1 150842Z 10008KT 24/18 A2974 RMK A01 T02370179  RH  070%=      5-min Rain = 0
KCA1 150843Z 07010KT 24/18 A2974 RMK A01 T02360178  RH  070%=      5-min Rain = 0
KCA1 150844Z 06009KT 23/18 A2974 RMK A01 T02310176  RH  071%=      5-min Rain = 0
KCA1 150845Z 06010KT 23/18 A2974 RMK A01 T02260175  RH  073%=      5-min Rain = 0
KCA1 150846Z 07010KT 22/17 A2974 RMK A01 T02220174  RH  074%=      5-min Rain = 0
KCA1 150847Z 06007KT 22/17 A2974 RMK A01 T02180174  RH  076%=      5-min Rain = 0
KCA1 150848Z 06007KT 22/17 A2974 RMK A01 T02160174  RH  077%=      5-min Rain = 0
KCA1 150849Z 07008KT 22/17 A2973 RMK A01 T02150174  RH  078%=      5-min Rain = 0
KCA1 150850Z 07009KT 21/17 A2973 RMK A01 T02120174  RH  079%=      5-min Rain = 0
KCA1 150851Z 07010KT 21/17 A2973 RMK A01 T02110174  RH  079%=      5-min Rain = 0
KCA1 150852Z 07010KT 21/17 A2973 RMK A01 T02100174  RH  080%=      5-min Rain = 0
KCA1 150853Z 07011KT 21/17 A2973 RMK A01 T02100174  RH  080%=      5-min Rain = 0
KCA1 150854Z 08011KT 21/17 A2973 RMK A01 T02110174  RH  080%=      5-min Rain = 0
KCA1 150855Z 09012KT 21/17 A2973 RMK A01 T02110174  RH  079%=      5-min Rain = 0
KCA1 150856Z 09010KT 21/18 A2973 RMK A01 T02120175  RH  079%=      5-min Rain = 0
KCA1 150857Z 09010KT 21/18 A2973 RMK A01 T02130175  RH  079%=      5-min Rain = 0
KCA1 150858Z 09009KT 21/18 A2973 RMK A01 T02140175  RH  079%=      5-min Rain = 0
KCA1 150859Z 09010KT 21/18 A2973 RMK A01 T02140175  RH  078%=      5-min Rain = 0
KCA1 150900Z 09009KT 21/18 A2973 RMK A01 T02140175  RH  078%=      5-min Rain = 0
KCA1 150901Z 09010KT 22/18 A2973 RMK A01 T02150176  RH  078%=      5-min Rain = 0
KCA1 150902Z 09010KT 21/18 A2973 RMK A01 T02140176  RH  079%=      5-min Rain = 0
KCA1 150903Z 09009KT 21/18 A2973 RMK A01 T02140176  RH  079%=      5-min Rain = 0
KCA1 150904Z 09009KT 21/18 A2973 RMK A01 T02130175  RH  079%=      5-min Rain = 0
KCA1 150905Z 10009KT 21/18 A2973 RMK A01 T02130176  RH  079%=      5-min Rain = 0
KCA1 150906Z 10009KT 21/18 A2973 RMK A01 T02130175  RH  079%=      5-min Rain = 0
KCA1 150907Z 10009KT 21/18 A2973 RMK A01 T02120175  RH  079%=      5-min Rain = 0
KCA1 150908Z 10009KT 21/18 A2973 RMK A01 T02120175  RH  080%=      5-min Rain = 0
KCA1 150909Z 11009KT 21/18 A2973 RMK A01 T02120175  RH  080%=      5-min Rain = 0
KCA1 150910Z 11010KT 21/18 A2973 RMK A01 T02120176  RH  080%=      5-min Rain = 0
KCA1 150911Z 12010KT 21/18 A2973 RMK A01 T02120176  RH  080%=      5-min Rain = 0
KCA1 150912Z 12009KT 21/18 A2973 RMK A01 T02120176  RH  080%=      5-min Rain = 0
KCA1 150913Z 13011KT 21/18 A2973 RMK A01 T02120176  RH  080%=      5-min Rain = 0
KCA1 150914Z 13012KT 21/18 A2973 RMK A01 T02130177  RH  080%=      5-min Rain = 0
KCA1 150915Z 13012KT 21/18 A2973 RMK A01 T02140177  RH  079%=      5-min Rain = 0
KCA1 150916Z 13012KT 22/18 A2973 RMK A01 T02160178  RH  079%=      5-min Rain = 0
KCA1 150917Z 13011KT 22/18 A2973 RMK A01 T02170179  RH  079%=      5-min Rain = 0
KCA1 150918Z 13010KT 22/18 A2972 RMK A01 T02190179  RH  078%=      5-min Rain = 0
KCA1 150919Z 14009KT 22/18 A2973 RMK A01 T02200179  RH  078%=      5-min Rain = 0
KCA1 150920Z 14010KT 22/18 A2972 RMK A01 T02200179  RH  077%=      5-min Rain = 0
KCA1 150921Z 14012KT 22/18 A2972 RMK A01 T02200179  RH  078%=      5-min Rain = 0
KCA1 150922Z 14011KT 22/18 A2972 RMK A01 T02210180  RH  077%=      5-min Rain = 0
KCA1 150923Z 13010KT 22/18 A2972 RMK A01 T02210180  RH  077%=      5-min Rain = 0
KCA1 150924Z 13010KT 22/18 A2972 RMK A01 T02210180  RH  077%=      5-min Rain = 0
KCA1 150925Z 13009KT 22/18 A2972 RMK A01 T02220180  RH  077%=      5-min Rain = 0
KCA1 150926Z 13010KT 22/18 A2972 RMK A01 T02210180  RH  078%=      5-min Rain = 0
KCA1 150927Z 13009KT 22/18 A2972 RMK A01 T02200180  RH  078%=      5-min Rain = 0
KCA1 150928Z 12008KT 22/18 A2972 RMK A01 T02200180  RH  078%=      5-min Rain = 0
KCA1 150929Z 11008KT 22/18 A2972 RMK A01 T02200181  RH  078%=      5-min Rain = 0
KCA1 150930Z 11007KT 22/18 A2973 RMK A01 T02200181  RH  078%=      5-min Rain = 0
KCA1 150931Z 08006KT 22/18 A2973 RMK A01 T02190180  RH  078%=      5-min Rain = 0
KCA1 150932Z 06006KT 22/18 A2973 RMK A01 T02190181  RH  079%=      5-min Rain = 0
KCA1 150933Z 05008KT 22/17 A2973 RMK A01 T02160174  RH  077%=      5-min Rain = 0
KCA1 150934Z 06007KT 21/17 A2973 RMK A01 T02080169  RH  078%=      5-min Rain = 0
KCA1 150935Z 05007KT 20/17 A2973 RMK A01 T02030169  RH  080%=      5-min Rain = 0
KCA1 150936Z 05007KT 20/17 A2973 RMK A01 T02000169  RH  082%=      5-min Rain = 0
KCA1 150937Z 06008KT 20/17 A2973 RMK A01 T01990171  RH  084%=      5-min Rain = 0
KCA1 150938Z 05007KT 20/17 A2974 RMK A01 T02010174  RH  084%=      5-min Rain = 0
KCA1 150939Z 06009KT 21/18 A2974 RMK A01 T02050175  RH  083%=      5-min Rain = 0
KCA1 150940Z 07008KT 21/18 A2974 RMK A01 T02080176  RH  082%=      5-min Rain = 0
KCA1 150941Z 09007KT 21/18 A2974 RMK A01 T02100176  RH  081%=      5-min Rain = 0
KCA1 150942Z 09008KT 21/18 A2974 RMK A01 T02110176  RH  080%=      5-min Rain = 0
KCA1 150943Z 09009KT 21/18 A2974 RMK A01 T02110176  RH  080%=      5-min Rain = 0
KCA1 150944Z 10008KT 21/18 A2973 RMK A01 T02120176  RH  080%=      5-min Rain = 0
KCA1 150945Z 10010KT 21/18 A2973 RMK A01 T02130177  RH  080%=      5-min Rain = 0
KCA1 150946Z 10009KT 21/18 A2973 RMK A01 T02140178  RH  080%=      5-min Rain = 0
KCA1 150947Z 11009KT 22/18 A2973 RMK A01 T02150178  RH  080%=      5-min Rain = 0
KCA1 150948Z 12010KT 22/18 A2973 RMK A01 T02160179  RH  079%=      5-min Rain = 0
KCA1 150949Z 12010KT 22/18 A2973 RMK A01 T02170178  RH  078%=      5-min Rain = 0
KCA1 150950Z 13010KT 22/18 A2973 RMK A01 T02190179  RH  078%=      5-min Rain = 0
KCA1 150951Z 13009KT 22/18 A2973 RMK A01 T02190178  RH  078%=      5-min Rain = 0
KCA1 150952Z 12008KT 22/18 A2973 RMK A01 T02200179  RH  078%=      5-min Rain = 0
KCA1 150953Z 12008KT 22/18 A2973 RMK A01 T02200179  RH  077%=      5-min Rain = 0
KCA1 150954Z 13008KT 22/18 A2973 RMK A01 T02210179  RH  077%=      5-min Rain = 0
KCA1 150955Z 13008KT 22/18 A2973 RMK A01 T02210179  RH  077%=      5-min Rain = 0
KCA1 150956Z 13007KT 22/18 A2973 RMK A01 T02220180  RH  077%=      5-min Rain = 0
KCA1 150957Z 14008KT 22/18 A2973 RMK A01 T02220179  RH  077%=      5-min Rain = 0
KCA1 150958Z 14007KT 22/18 A2973 RMK A01 T02230180  RH  076%=      5-min Rain = 0
KCA1 150959Z 13007KT 22/18 A2974 RMK A01 T02240180  RH  076%=      5-min Rain = 0
KCA1 151000Z 14007KT 22/18 A2974 RMK A01 T02240180  RH  076%=      5-min Rain = 0
KCA1 151001Z 13007KT 23/18 A2974 RMK A01 T02250180  RH  075%=      5-min Rain = 0
KCA1 151002Z 13008KT 23/18 A2974 RMK A01 T02260180  RH  075%=      5-min Rain = 0
KCA1 151003Z 13008KT 23/18 A2973 RMK A01 T02260180  RH  075%=      5-min Rain = 0
KCA1 151004Z 14009KT 23/18 A2973 RMK A01 T02260179  RH  075%=      5-min Rain = 0
KCA1 151005Z 14009KT 23/18 A2973 RMK A01 T02260180  RH  075%=      5-min Rain = 0
KCA1 151006Z 14008KT 23/18 A2973 RMK A01 T02250180  RH  075%=      5-min Rain = 0
KCA1 151007Z 14008KT 23/18 A2973 RMK A01 T02250180  RH  076%=      5-min Rain = 0
KCA1 151008Z 14008KT 22/18 A2973 RMK A01 T02240179  RH  076%=      5-min Rain = 0
KCA1 151009Z 13009KT 22/18 A2973 RMK A01 T02230179  RH  076%=      5-min Rain = 0
KCA1 151010Z 13009KT 22/18 A2972 RMK A01 T02220179  RH  077%=      5-min Rain = 0
KCA1 151011Z 13008KT 22/18 A2972 RMK A01 T02210179  RH  077%=      5-min Rain = 0
KCA1 151012Z 12007KT 22/18 A2972 RMK A01 T02210179  RH  077%=      5-min Rain = 0
KCA1 151013Z 12007KT 22/18 A2973 RMK A01 T02210179  RH  077%=      5-min Rain = 0
KCA1 151014Z 11006KT 22/18 A2973 RMK A01 T02200179  RH  078%=      5-min Rain = 0
KCA1 151015Z 10005KT 22/18 A2973 RMK A01 T02190179  RH  078%=      5-min Rain = 0
KCA1 151016Z 09006KT 22/18 A2973 RMK A01 T02180179  RH  078%=      5-min Rain = 0
KCA1 151017Z 09006KT 22/18 A2973 RMK A01 T02160178  RH  079%=      5-min Rain = 0
KCA1 151018Z 08006KT 21/18 A2973 RMK A01 T02140178  RH  080%=      5-min Rain = 0
KCA1 151019Z 07005KT 21/18 A2973 RMK A01 T02130178  RH  081%=      5-min Rain = 0
KCA1 151020Z 06006KT 21/18 A2973 RMK A01 T02100177  RH  081%=      5-min Rain = 0
KCA1 151021Z 07006KT 21/17 A2973 RMK A01 T02060174  RH  082%=      5-min Rain = 0
KCA1 151022Z 09007KT 20/17 A2973 RMK A01 T02020173  RH  084%=      5-min Rain = 0
KCA1 151023Z 11008KT 20/17 A2973 RMK A01 T02000173  RH  085%=      5-min Rain = 0
KCA1 151024Z 11008KT 20/17 A2973 RMK A01 T01990174  RH  086%=      5-min Rain = 0
KCA1 151025Z 12009KT 20/18 A2973 RMK A01 T02000175  RH  086%=      5-min Rain = 0
KCA1 151026Z 12009KT 20/18 A2973 RMK A01 T02010176  RH  085%=      5-min Rain = 0
KCA1 151027Z 12010KT 20/18 A2973 RMK A01 T02030177  RH  085%=      5-min Rain = 0
KCA1 151028Z 12009KT 21/18 A2973 RMK A01 T02050177  RH  084%=      5-min Rain = 0
KCA1 151029Z 12009KT 21/18 A2973 RMK A01 T02070178  RH  083%=      5-min Rain = 0
KCA1 151030Z 13009KT 21/18 A2973 RMK A01 T02080178  RH  083%=      5-min Rain = 0
KCA1 151031Z 13009KT 21/18 A2973 RMK A01 T02080178  RH  082%=      5-min Rain = 0
KCA1 151032Z 12008KT 21/18 A2973 RMK A01 T02090177  RH  082%=      5-min Rain = 0
KCA1 151033Z 12008KT 21/18 A2973 RMK A01 T02090177  RH  082%=      5-min Rain = 0
KCA1 151034Z 12007KT 21/18 A2973 RMK A01 T02090177  RH  082%=      5-min Rain = 0
KCA1 151035Z 13008KT 21/18 A2973 RMK A01 T02090177  RH  082%=      5-min Rain = 0
KCA1 151036Z 13008KT 21/18 A2973 RMK A01 T02090177  RH  082%=      5-min Rain = 0
KCA1 151037Z 13008KT 21/18 A2973 RMK A01 T02090177  RH  082%=      5-min Rain = 0
KCA1 151038Z 13009KT 21/18 A2973 RMK A01 T02100177  RH  082%=      5-min Rain = 0
KCA1 151039Z 13009KT 21/18 A2973 RMK A01 T02090177  RH  082%=      5-min Rain = 0
KCA1 151040Z 14010KT 21/18 A2973 RMK A01 T02090177  RH  082%=      5-min Rain = 0
KCA1 151041Z 14009KT 21/18 A2973 RMK A01 T02090177  RH  082%=      5-min Rain = 0
KCA1 151042Z 13009KT 21/18 A2973 RMK A01 T02100178  RH  082%=      5-min Rain = 0
KCA1 151043Z 13008KT 21/18 A2973 RMK A01 T02100178  RH  082%=      5-min Rain = 0
KCA1 151044Z 13008KT 21/18 A2973 RMK A01 T02100178  RH  082%=      5-min Rain = 0
KCA1 151045Z 13007KT 21/18 A2973 RMK A01 T02100178  RH  082%=      5-min Rain = 0
KCA1 151046Z 13007KT 21/18 A2973 RMK A01 T02100178  RH  082%=      5-min Rain = 0
KCA1 151047Z 12007KT 21/18 A2973 RMK A01 T02090178  RH  082%=      5-min Rain = 0
KCA1 151048Z 12008KT 21/18 A2973 RMK A01 T02090178  RH  082%=      5-min Rain = 0
KCA1 151049Z 12007KT 21/18 A2973 RMK A01 T02090178  RH  082%=      5-min Rain = 0
KCA1 151050Z 12007KT 21/18 A2973 RMK A01 T02080178  RH  083%=      5-min Rain = 0
KCA1 151051Z 12007KT 21/18 A2973 RMK A01 T02080177  RH  083%=      5-min Rain = 0
KCA1 151052Z 12008KT 21/18 A2973 RMK A01 T02080178  RH  083%=      5-min Rain = 0
KCA1 151053Z 12008KT 21/18 A2973 RMK A01 T02080177  RH  083%=      5-min Rain = 0
KCA1 151054Z 12009KT 21/18 A2973 RMK A01 T02080177  RH  083%=      5-min Rain = 0
KCA1 151055Z 12009KT 21/18 A2973 RMK A01 T02080177  RH  083%=      5-min Rain = 0
KCA1 151056Z 12010KT 21/18 A2973 RMK A01 T02070177  RH  083%=      5-min Rain = 0
KCA1 151057Z 13011KT 21/18 A2972 RMK A01 T02070178  RH  083%=      5-min Rain = 0
KCA1 151058Z 13011KT 21/18 A2972 RMK A01 T02060177  RH  083%=      5-min Rain = 0
KCA1 151059Z 13011KT 21/18 A2972 RMK A01 T02060177  RH  084%=      5-min Rain = 0
KCA1 151100Z 13010KT 21/18 A2972 RMK A01 T02060177  RH  084%=      5-min Rain = 0
KCA1 151101Z 13009KT 21/18 A2973 RMK A01 T02050177  RH  084%=      5-min Rain = 0
KCA1 151102Z 13009KT 21/18 A2973 RMK A01 T02050177  RH  084%=      5-min Rain = 0
KCA1 151103Z 13009KT 21/18 A2973 RMK A01 T02050177  RH  084%=      5-min Rain = 0
KCA1 151104Z 13008KT 21/18 A2973 RMK A01 T02050177  RH  084%=      5-min Rain = 0
KCA1 151105Z 13007KT 21/18 A2974 RMK A01 T02050177  RH  084%=      5-min Rain = 0
KCA1 151106Z 12007KT 21/18 A2974 RMK A01 T02050177  RH  084%=      5-min Rain = 0
KCA1 151107Z 12007KT 21/18 A2974 RMK A01 T02050177  RH  084%=      5-min Rain = 0
KCA1 151108Z 12007KT 21/18 A2974 RMK A01 T02050177  RH  084%=      5-min Rain = 0
KCA1 151109Z 12007KT 21/18 A2974 RMK A01 T02050177  RH  084%=      5-min Rain = 0
KCA1 151110Z 11006KT 21/18 A2975 RMK A01 T02050177  RH  084%=      5-min Rain = 0
KCA1 151111Z 10005KT 21/18 A2975 RMK A01 T02050177  RH  084%=      5-min Rain = 0
KCA1 151112Z 08005KT 20/18 A2975 RMK A01 T02040177  RH  084%=      5-min Rain = 0
KCA1 151113Z 07006KT 20/18 A2975 RMK A01 T02020176  RH  085%=      5-min Rain = 0
KCA1 151114Z 06006KT 20/18 A2976 RMK A01 T01990175  RH  086%=      5-min Rain = 0
KCA1 151115Z 06007KT 20/18 A2976 RMK A01 T01970175  RH  087%=      5-min Rain = 0
KCA1 151116Z 06007KT 20/18 A2976 RMK A01 T01950175  RH  088%=      5-min Rain = 0
KCA1 151117Z 05008KT 20/18 A2976 RMK A01 T01950175  RH  089%=      5-min Rain = 0
KCA1 151118Z 05008KT 19/18 A2976 RMK A01 T01940175  RH  089%=      5-min Rain = 0
KCA1 151119Z 06008KT 19/18 A2975 RMK A01 T01940176  RH  089%=      5-min Rain = 0
KCA1 151120Z 06008KT 19/18 A2975 RMK A01 T01940176  RH  089%=      5-min Rain = 0
KCA1 151121Z 07008KT 19/18 A2975 RMK A01 T01930176  RH  090%=      5-min Rain = 0
KCA1 151122Z 07008KT 19/18 A2975 RMK A01 T01930176  RH  090%=      5-min Rain = 0
KCA1 151123Z 08009KT 19/18 A2975 RMK A01 T01920175  RH  090%=      5-min Rain = 0
KCA1 151124Z 08008KT 19/18 A2975 RMK A01 T01920175  RH  090%=      5-min Rain = 0
KCA1 151125Z 09008KT 19/18 A2975 RMK A01 T01910175  RH  090%=      5-min Rain = 0
KCA1 151126Z 09009KT 19/18 A2975 RMK A01 T01910175  RH  091%=      5-min Rain = 0
KCA1 151127Z 10010KT 19/18 A2975 RMK A01 T01910175  RH  091%=      5-min Rain = 0
KCA1 151128Z 10011KT 19/18 A2975 RMK A01 T01910175  RH  091%=      5-min Rain = 0
KCA1 151129Z 10011KT 19/18 A2975 RMK A01 T01910175  RH  090%=      5-min Rain = 0
KCA1 151130Z 11011KT 19/18 A2975 RMK A01 T01920175  RH  090%=      5-min Rain = 0
KCA1 151131Z 11009KT 19/18 A2975 RMK A01 T01930176  RH  090%=      5-min Rain = 0
KCA1 151132Z 11008KT 19/18 A2975 RMK A01 T01940176  RH  089%=      5-min Rain = 0
KCA1 151133Z 11008KT 20/18 A2975 RMK A01 T01950175  RH  088%=      5-min Rain = 0
KCA1 151134Z 10007KT 20/18 A2975 RMK A01 T01960176  RH  088%=      5-min Rain = 0
KCA1 151135Z 09007KT 20/18 A2975 RMK A01 T01970176  RH  087%=      5-min Rain = 0
KCA1 151136Z 09007KT 20/18 A2975 RMK A01 T01970176  RH  088%=      5-min Rain = 0
KCA1 151137Z 09007KT 20/18 A2975 RMK A01 T01950175  RH  088%=      5-min Rain = 0
KCA1 151138Z 09007KT 19/18 A2975 RMK A01 T01940175  RH  089%=      5-min Rain = 0
KCA1 151139Z 10008KT 19/18 A2975 RMK A01 T01930175  RH  089%=      5-min Rain = 0
KCA1 151140Z 10008KT 19/18 A2975 RMK A01 T01930175  RH  090%=      5-min Rain = 0
KCA1 151141Z 10009KT 19/18 A2975 RMK A01 T01930175  RH  090%=      5-min Rain = 0
KCA1 151142Z 10009KT 19/18 A2975 RMK A01 T01930175  RH  090%=      5-min Rain = 0
KCA1 151143Z 10008KT 19/18 A2975 RMK A01 T01920175  RH  090%=      5-min Rain = 0
KCA1 151144Z 09008KT 19/18 A2975 RMK A01 T01930175  RH  090%=      5-min Rain = 0
KCA1 151145Z 09008KT 19/18 A2975 RMK A01 T01920175  RH  090%=      5-min Rain = 0
KCA1 151146Z 09008KT 19/18 A2975 RMK A01 T01920175  RH  090%=      5-min Rain = 0
KCA1 151147Z 09008KT 19/18 A2975 RMK A01 T01910175  RH  091%=      5-min Rain = 0
KCA1 151148Z 09008KT 19/18 A2975 RMK A01 T01910175  RH  091%=      5-min Rain = 0
KCA1 151149Z 09008KT 19/18 A2975 RMK A01 T01910175  RH  091%=      5-min Rain = 0
KCA1 151150Z 09010KT 19/18 A2975 RMK A01 T01910175  RH  091%=      5-min Rain = 0
KCA1 151151Z 09009KT 19/18 A2975 RMK A01 T01910175  RH  091%=      5-min Rain = 0
KCA1 151152Z 07009KT 19/18 A2975 RMK A01 T01920176  RH  091%=      5-min Rain = 0
KCA1 151153Z 07011KT 19/18 A2975 RMK A01 T01910175  RH  090%=      5-min Rain = 0
KCA1 151154Z 07010KT 19/17 A2975 RMK A01 T01890173  RH  090%=      5-min Rain = 0
KCA1 151155Z 07011KT 19/17 A2975 RMK A01 T01870171  RH  090%=      5-min Rain = 0
KCA1 151156Z 07010KT 19/17 A2975 RMK A01 T01860171  RH  091%=      5-min Rain = 0
KCA1 151157Z 08010KT 19/17 A2975 RMK A01 T01850171  RH  091%=      5-min Rain = 0
KCA1 151158Z 08009KT 18/17 A2975 RMK A01 T01840171  RH  092%=      5-min Rain = 0
KCA1 151159Z 09009KT 18/17 A2975 RMK A01 T01840171  RH  092%=      5-min Rain = 0
KCA1 151200Z 08009KT 18/17 A2975 RMK A01 T01840171  RH  092%=      5-min Rain = 0
KCA1 151201Z 09009KT 18/17 A2975 RMK A01 T01840172  RH  092%=      5-min Rain = 0
KCA1 151202Z 09008KT 19/17 A2976 RMK A01 T01850172  RH  092%=      5-min Rain = 0
KCA1 151203Z 09009KT 19/17 A2976 RMK A01 T01850172  RH  092%=      5-min Rain = 0
KCA1 151204Z 09009KT 19/17 A2975 RMK A01 T01850172  RH  092%=      5-min Rain = 0
KCA1 151205Z 09009KT 19/17 A2975 RMK A01 T01850172  RH  092%=      5-min Rain = 0
KCA1 151206Z 10010KT 19/17 A2975 RMK A01 T01850172  RH  092%=      5-min Rain = 0
KCA1 151207Z 09010KT 19/17 A2975 RMK A01 T01850172  RH  092%=      5-min Rain = 0
KCA1 151208Z 09010KT 19/17 A2975 RMK A01 T01850172  RH  092%=      5-min Rain = 0
KCA1 151209Z 09009KT 19/17 A2975 RMK A01 T01850172  RH  092%=      5-min Rain = 0
KCA1 151210Z 08009KT 19/17 A2975 RMK A01 T01850172  RH  092%=      5-min Rain = 0
KCA1 151211Z 08009KT 19/17 A2975 RMK A01 T01850173  RH  093%=      5-min Rain = 0
KCA1 151212Z 07010KT 19/17 A2976 RMK A01 T01850173  RH  093%=      5-min Rain = 0
KCA1 151213Z 07010KT 19/17 A2976 RMK A01 T01850173  RH  093%=      5-min Rain = 0
KCA1 151214Z 07010KT 19/17 A2976 RMK A01 T01850173  RH  093%=      5-min Rain = 0
KCA1 151215Z 08010KT 19/17 A2976 RMK A01 T01850173  RH  093%=      5-min Rain = 0
KCA1 151216Z 08009KT 19/17 A2976 RMK A01 T01850173  RH  093%=      5-min Rain = 0
KCA1 151217Z 09010KT 19/17 A2976 RMK A01 T01850173  RH  093%=      5-min Rain = 0
KCA1 151218Z 09010KT 19/17 A2975 RMK A01 T01850173  RH  093%=      5-min Rain = 0
KCA1 151219Z 10009KT 19/17 A2975 RMK A01 T01860173  RH  092%=      5-min Rain = 0
KCA1 151220Z 10010KT 19/17 A2975 RMK A01 T01860173  RH  092%=      5-min Rain = 0
KCA1 151221Z 10009KT 19/17 A2976 RMK A01 T01870174  RH  092%=      5-min Rain = 0
KCA1 151222Z 10009KT 19/17 A2976 RMK A01 T01880174  RH  091%=      5-min Rain = 0
KCA1 151223Z 10009KT 19/17 A2976 RMK A01 T01900174  RH  091%=      5-min Rain = 0
KCA1 151224Z 10009KT 19/18 A2976 RMK A01 T01910175  RH  090%=      5-min Rain = 0
KCA1 151225Z 10008KT 19/17 A2976 RMK A01 T01920174  RH  090%=      5-min Rain = 0
KCA1 151226Z 10008KT 19/18 A2976 RMK A01 T01930175  RH  089%=      5-min Rain = 0
KCA1 151227Z 09008KT 19/18 A2976 RMK A01 T01940175  RH  089%=      5-min Rain = 0
KCA1 151228Z 09008KT 19/18 A2976 RMK A01 T01940176  RH  089%=      5-min Rain = 0
KCA1 151229Z 09008KT 20/18 A2976 RMK A01 T01950175  RH  089%=      5-min Rain = 0
KCA1 151230Z 09010KT 20/18 A2976 RMK A01 T01950176  RH  089%=      5-min Rain = 0
KCA1 151231Z 09010KT 20/18 A2976 RMK A01 T01950175  RH  089%=      5-min Rain = 0
KCA1 151232Z 09009KT 20/18 A2976 RMK A01 T01950176  RH  088%=      5-min Rain = 0
KCA1 151233Z 09008KT 20/18 A2976 RMK A01 T01960176  RH  088%=      5-min Rain = 0
KCA1 151234Z 09009KT 20/18 A2976 RMK A01 T01960177  RH  089%=      5-min Rain = 0
KCA1 151235Z 09009KT 20/18 A2976 RMK A01 T01970177  RH  088%=      5-min Rain = 0
KCA1 151236Z 09009KT 20/18 A2976 RMK A01 T01970177  RH  088%=      5-min Rain = 0
KCA1 151237Z 10009KT 20/18 A2976 RMK A01 T01980176  RH  088%=      5-min Rain = 0
KCA1 151238Z 10009KT 20/18 A2976 RMK A01 T01980177  RH  087%=      5-min Rain = 0
KCA1 151239Z 10010KT 20/18 A2975 RMK A01 T01980177  RH  087%=      5-min Rain = 0
KCA1 151240Z 11010KT 20/18 A2975 RMK A01 T01990177  RH  087%=      5-min Rain = 0
KCA1 151241Z 11010KT 20/18 A2975 RMK A01 T02000177  RH  087%=      5-min Rain = 0
KCA1 151242Z 11008KT 20/18 A2975 RMK A01 T02000177  RH  086%=      5-min Rain = 0
KCA1 151243Z 10008KT 20/18 A2975 RMK A01 T02010177  RH  086%=      5-min Rain = 0
KCA1 151244Z 10010KT 20/18 A2975 RMK A01 T02010177  RH  086%=      5-min Rain = 0
KCA1 151245Z 10009KT 20/18 A2975 RMK A01 T02020177  RH  085%=      5-min Rain = 0
KCA1 151246Z 10009KT 20/18 A2975 RMK A01 T02020177  RH  085%=      5-min Rain = 0
KCA1 151247Z 10009KT 20/18 A2975 RMK A01 T02030177  RH  085%=      5-min Rain = 0
KCA1 151248Z 10009KT 20/18 A2975 RMK A01 T02040178  RH  085%=      5-min Rain = 0
KCA1 151249Z 09009KT 20/18 A2975 RMK A01 T02040178  RH  085%=      5-min Rain = 0
KCA1 151250Z 09009KT 21/18 A2975 RMK A01 T02050178  RH  085%=      5-min Rain = 0
KCA1 151251Z 09009KT 21/18 A2975 RMK A01 T02050179  RH  085%=      5-min Rain = 0
KCA1 151252Z 10009KT 21/18 A2975 RMK A01 T02060178  RH  084%=      5-min Rain = 0
KCA1 151253Z 10010KT 21/18 A2975 RMK A01 T02060178  RH  084%=      5-min Rain = 0
KCA1 151254Z 11009KT 21/18 A2975 RMK A01 T02070178  RH  084%=      5-min Rain = 0
KCA1 151255Z 10010KT 21/18 A2975 RMK A01 T02070178  RH  083%=      5-min Rain = 0
KCA1 151256Z 11010KT 21/18 A2975 RMK A01 T02080178  RH  083%=      5-min Rain = 0
KCA1 151257Z 11010KT 21/18 A2975 RMK A01 T02090178  RH  082%=      5-min Rain = 0
KCA1 151258Z 11009KT 21/18 A2975 RMK A01 T02090178  RH  082%=      5-min Rain = 0
KCA1 151259Z 11009KT 21/18 A2975 RMK A01 T02090179  RH  083%=      5-min Rain = 0
KCA1 151300Z 11010KT 21/18 A2975 RMK A01 T02100179  RH  082%=      5-min Rain = 0
KCA1 151301Z 11008KT 21/18 A2975 RMK A01 T02110179  RH  082%=      5-min Rain = 0
KCA1 151302Z 10009KT 21/18 A2975 RMK A01 T02120180  RH  082%=      5-min Rain = 0
KCA1 151303Z 11010KT 21/18 A2975 RMK A01 T02120179  RH  081%=      5-min Rain = 0
KCA1 151304Z 11009KT 21/18 A2975 RMK A01 T02130179  RH  081%=      5-min Rain = 0
KCA1 151305Z 10010KT 21/18 A2975 RMK A01 T02130179  RH  081%=      5-min Rain = 0
KCA1 151306Z 10010KT 21/18 A2975 RMK A01 T02130179  RH  081%=      5-min Rain = 0
KCA1 151307Z 10009KT 21/18 A2975 RMK A01 T02130179  RH  081%=      5-min Rain = 0
KCA1 151308Z 10010KT 21/18 A2975 RMK A01 T02130179  RH  081%=      5-min Rain = 0
KCA1 151309Z 10010KT 21/18 A2975 RMK A01 T02130179  RH  081%=      5-min Rain = 0
KCA1 151310Z 10011KT 21/18 A2975 RMK A01 T02140179  RH  081%=      5-min Rain = 0
KCA1 151311Z 10010KT 21/18 A2976 RMK A01 T02140179  RH  080%=      5-min Rain = 0
KCA1 151312Z 09008KT 21/18 A2976 RMK A01 T02140179  RH  080%=      5-min Rain = 0
KCA1 151313Z 10008KT 22/18 A2976 RMK A01 T02150182  RH  081%=      5-min Rain = 0
KCA1 151314Z 10010KT 22/18 A2976 RMK A01 T02170182  RH  081%=      5-min Rain = 0
KCA1 151315Z 10010KT 22/18 A2975 RMK A01 T02180181  RH  080%=      5-min Rain = 0
KCA1 151316Z 10008KT 22/18 A2976 RMK A01 T02180181  RH  079%=      5-min Rain = 0
KCA1 151317Z 11008KT 22/18 A2976 RMK A01 T02190182  RH  079%=      5-min Rain = 0
KCA1 151318Z 10008KT 22/18 A2976 RMK A01 T02200182  RH  079%=      5-min Rain = 0
KCA1 151319Z 10009KT 22/18 A2976 RMK A01 T02210182  RH  078%=      5-min Rain = 0
KCA1 151320Z 11009KT 22/18 A2976 RMK A01 T02220182  RH  078%=      5-min Rain = 0
KCA1 151321Z 10008KT 22/18 A2976 RMK A01 T02220182  RH  078%=      5-min Rain = 0
KCA1 151322Z 10010KT 22/18 A2976 RMK A01 T02230183  RH  078%=      5-min Rain = 0
KCA1 151323Z 10008KT 22/18 A2976 RMK A01 T02230182  RH  078%=      5-min Rain = 0
KCA1 151324Z 09008KT 22/18 A2976 RMK A01 T02230184  RH  078%=      5-min Rain = 0
KCA1 151325Z 10010KT 22/18 A2976 RMK A01 T02240184  RH  078%=      5-min Rain = 0
KCA1 151326Z 11010KT 23/18 A2976 RMK A01 T02250183  RH  077%=      5-min Rain = 0
KCA1 151327Z 11010KT 23/18 A2976 RMK A01 T02250181  RH  076%=      5-min Rain = 0
KCA1 151328Z 11008KT 23/18 A2976 RMK A01 T02250183  RH  077%=      5-min Rain = 0
KCA1 151329Z 10009KT 23/18 A2976 RMK A01 T02250184  RH  077%=      5-min Rain = 0
KCA1 151330Z 10009KT 23/18 A2976 RMK A01 T02270184  RH  077%=      5-min Rain = 0
KCA1 151331Z 11009KT 23/18 A2976 RMK A01 T02270184  RH  077%=      5-min Rain = 0
KCA1 151332Z 11010KT 23/18 A2976 RMK A01 T02280183  RH  076%=      5-min Rain = 0
KCA1 151333Z 11009KT 23/18 A2976 RMK A01 T02280183  RH  076%=      5-min Rain = 0
KCA1 151334Z 12009KT 23/19 A2976 RMK A01 T02290185  RH  077%=      5-min Rain = 0
KCA1 151335Z 12009KT 23/18 A2976 RMK A01 T02290184  RH  076%=      5-min Rain = 0
KCA1 151336Z 11008KT 23/19 A2976 RMK A01 T02290185  RH  076%=      5-min Rain = 0
KCA1 151337Z 12011KT 23/19 A2976 RMK A01 T02310186  RH  076%=      5-min Rain = 0
KCA1 151338Z 12010KT 23/19 A2976 RMK A01 T02310185  RH  075%=      5-min Rain = 0
KCA1 151339Z 11011KT 23/18 A2976 RMK A01 T02310184  RH  075%=      5-min Rain = 0
KCA1 151340Z 13010KT 23/18 A2976 RMK A01 T02310184  RH  075%=      5-min Rain = 0
KCA1 151341Z 12009KT 23/19 A2976 RMK A01 T02300185  RH  076%=      5-min Rain = 0
KCA1 151342Z 12008KT 23/19 A2977 RMK A01 T02300186  RH  076%=      5-min Rain = 0
KCA1 151343Z 12008KT 23/19 A2977 RMK A01 T02310188  RH  076%=      5-min Rain = 0
KCA1 151344Z 12011KT 23/19 A2977 RMK A01 T02330186  RH  075%=      5-min Rain = 0
KCA1 151345Z 12011KT 23/19 A2977 RMK A01 T02330185  RH  075%=      5-min Rain = 0
KCA1 151346Z 12011KT 23/19 A2977 RMK A01 T02320185  RH  075%=      5-min Rain = 0
KCA1 151347Z 11010KT 23/19 A2977 RMK A01 T02320185  RH  075%=      5-min Rain = 0
KCA1 151348Z 11010KT 23/19 A2977 RMK A01 T02320185  RH  075%=      5-min Rain = 0
KCA1 151349Z 11011KT 23/19 A2977 RMK A01 T02320187  RH  075%=      5-min Rain = 0
KCA1 151350Z 12010KT 23/19 A2977 RMK A01 T02330186  RH  075%=      5-min Rain = 0
KCA1 151351Z 12010KT 23/19 A2977 RMK A01 T02330186  RH  075%=      5-min Rain = 0
KCA1 151352Z 11011KT 23/19 A2977 RMK A01 T02340186  RH  074%=      5-min Rain = 0
KCA1 151353Z 12010KT 23/19 A2977 RMK A01 T02340186  RH  074%=      5-min Rain = 0
KCA1 151354Z 12010KT 24/19 A2977 RMK A01 T02350185  RH  074%=      5-min Rain = 0
KCA1 151355Z 13010KT 24/19 A2977 RMK A01 T02350186  RH  074%=      5-min Rain = 0
KCA1 151356Z 13010KT 24/19 A2977 RMK A01 T02360186  RH  074%=      5-min Rain = 0
KCA1 151357Z 13011KT 24/19 A2977 RMK A01 T02360187  RH  074%=      5-min Rain = 0
KCA1 151358Z 13011KT 24/19 A2977 RMK A01 T02370185  RH  073%=      5-min Rain = 0
KCA1 151359Z 13009KT 24/19 A2977 RMK A01 T02370186  RH  073%=      5-min Rain = 0
KCA1 151400Z 13011KT 24/19 A2977 RMK A01 T02380187  RH  073%=      5-min Rain = 0
KCA1 151401Z 13010KT 24/19 A2977 RMK A01 T02390187  RH  073%=      5-min Rain = 0
KCA1 151402Z 13009KT 24/19 A2977 RMK A01 T02390188  RH  073%=      5-min Rain = 0
KCA1 151403Z 13009KT 24/19 A2977 RMK A01 T02400189  RH  073%=      5-min Rain = 0
KCA1 151404Z 12011KT 24/19 A2977 RMK A01 T02410187  RH  072%=      5-min Rain = 0
KCA1 151405Z 13011KT 24/19 A2977 RMK A01 T02410186  RH  071%=      5-min Rain = 0
KCA1 151406Z 13012KT 24/19 A2977 RMK A01 T02410186  RH  071%=      5-min Rain = 0
KCA1 151407Z 13012KT 24/19 A2977 RMK A01 T02410185  RH  071%=      5-min Rain = 0
KCA1 151408Z 13011KT 24/18 A2977 RMK A01 T02410184  RH  070%=      5-min Rain = 0
KCA1 151409Z 13009KT 24/19 A2977 RMK A01 T02410186  RH  071%=      5-min Rain = 0
KCA1 151410Z 14008KT 24/19 A2977 RMK A01 T02430188  RH  072%=      5-min Rain = 0
KCA1 151411Z 13011KT 25/19 A2977 RMK A01 T02450187  RH  070%=      5-min Rain = 0
KCA1 151412Z 14010KT 25/19 A2977 RMK A01 T02450187  RH  070%=      5-min Rain = 0
KCA1 151413Z 14011KT 25/19 A2977 RMK A01 T02450185  RH  069%=      5-min Rain = 0
KCA1 151414Z 14012KT 24/19 A2977 RMK A01 T02440185  RH  070%=      5-min Rain = 0
KCA1 151415Z 14011KT 24/19 A2977 RMK A01 T02430186  RH  070%=      5-min Rain = 0
KCA1 151416Z 14009KT 24/19 A2977 RMK A01 T02440187  RH  071%=      5-min Rain = 0
KCA1 151417Z 14009KT 25/19 A2977 RMK A01 T02450188  RH  070%=      5-min Rain = 0
KCA1 151418Z 15010KT 25/19 A2977 RMK A01 T02460189  RH  070%=      5-min Rain = 0
KCA1 151419Z 15011KT 25/19 A2977 RMK A01 T02470188  RH  070%=      5-min Rain = 0
KCA1 151420Z 15011KT 25/19 A2977 RMK A01 T02470187  RH  069%=      5-min Rain = 0
KCA1 151421Z 14009KT 25/19 A2977 RMK A01 T02460188  RH  070%=      5-min Rain = 0
KCA1 151422Z 13008G13KT 25/19 A2977 RMK A01 T02470191  RH  071%=      5-min Rain = 0
KCA1 151423Z 13012KT 25/19 A2977 RMK A01 T02490189  RH  069%=      5-min Rain = 0
KCA1 151424Z 13011KT 25/19 A2978 RMK A01 T02500188  RH  069%=      5-min Rain = 0
KCA1 151425Z 13010KT 25/19 A2978 RMK A01 T02490188  RH  069%=      5-min Rain = 0
KCA1 151426Z 13010KT 25/19 A2978 RMK A01 T02490189  RH  069%=      5-min Rain = 0
KCA1 151427Z 13009KT 25/19 A2978 RMK A01 T02490189  RH  069%=      5-min Rain = 0
KCA1 151428Z 13010KT 25/19 A2978 RMK A01 T02490188  RH  069%=      5-min Rain = 0
KCA1 151429Z 13010KT 25/19 A2978 RMK A01 T02500189  RH  069%=      5-min Rain = 0
KCA1 151430Z 13010KT 25/19 A2978 RMK A01 T02500188  RH  068%=      5-min Rain = 0
KCA1 151431Z 12009KT 25/19 A2978 RMK A01 T02510189  RH  069%=      5-min Rain = 0
KCA1 151432Z 13009KT 25/19 A2978 RMK A01 T02500187  RH  068%=      5-min Rain = 0
KCA1 151433Z 13010KT 25/19 A2978 RMK A01 T02500187  RH  068%=      5-min Rain = 0
KCA1 151434Z 13009KT 25/19 A2978 RMK A01 T02510187  RH  068%=      5-min Rain = 0
KCA1 151435Z 12011KT 25/19 A2978 RMK A01 T02510188  RH  068%=      5-min Rain = 0
KCA1 151436Z 12010KT 25/19 A2978 RMK A01 T02510189  RH  068%=      5-min Rain = 0
KCA1 151437Z 12010KT 25/19 A2978 RMK A01 T02520189  RH  068%=      5-min Rain = 0
KCA1 151438Z 13009KT 25/19 A2978 RMK A01 T02520189  RH  068%=      5-min Rain = 0
KCA1 151439Z 13010KT 25/19 A2978 RMK A01 T02530189  RH  068%=      5-min Rain = 0
KCA1 151440Z 12009KT 25/19 A2978 RMK A01 T02530190  RH  068%=      5-min Rain = 0
KCA1 151441Z 14009KT 26/19 A2978 RMK A01 T02550191  RH  068%=      5-min Rain = 0
KCA1 151442Z 13006KT 26/19 A2978 RMK A01 T02550189  RH  067%=      5-min Rain = 0
KCA1 151443Z 15006KT 26/19 A2978 RMK A01 T02560192  RH  068%=      5-min Rain = 0
KCA1 151444Z 15009KT 26/19 A2978 RMK A01 T02570192  RH  067%=      5-min Rain = 0
KCA1 151445Z 14009KT 26/19 A2978 RMK A01 T02570190  RH  067%=      5-min Rain = 0
KCA1 151446Z 14009KT 26/19 A2978 RMK A01 T02580190  RH  066%=      5-min Rain = 0
KCA1 151447Z 14010KT 26/19 A2978 RMK A01 T02580191  RH  067%=      5-min Rain = 0
KCA1 151448Z 13008KT 26/19 A2978 RMK A01 T02570190  RH  066%=      5-min Rain = 0
KCA1 151449Z 15010KT 26/19 A2978 RMK A01 T02580191  RH  066%=      5-min Rain = 0
KCA1 151450Z 16009KT 26/19 A2978 RMK A01 T02580190  RH  066%=      5-min Rain = 0
KCA1 151451Z 16009KT 26/19 A2978 RMK A01 T02590191  RH  066%=      5-min Rain = 0
KCA1 151452Z 16007KT 26/19 A2978 RMK A01 T02590191  RH  066%=      5-min Rain = 0
KCA1 151453Z 16008KT 26/19 A2978 RMK A01 T02610192  RH  066%=      5-min Rain = 0
KCA1 151454Z 15009KT 26/19 A2978 RMK A01 T02620190  RH  064%=      5-min Rain = 0
KCA1 151455Z 15010KT 26/19 A2978 RMK A01 T02610189  RH  065%=      5-min Rain = 0
KCA1 151456Z 15008KT 26/19 A2978 RMK A01 T02600189  RH  065%=      5-min Rain = 0
KCA1 151457Z 14009KT 26/19 A2978 RMK A01 T02590192  RH  066%=      5-min Rain = 0
KCA1 151458Z 14009KT 26/19 A2978 RMK A01 T02600189  RH  065%=      5-min Rain = 0
KCA1 151459Z 13008KT 26/19 A2978 RMK A01 T02590188  RH  065%=      5-min Rain = 0
KCA1 151500Z 16008KT 26/19 A2978 RMK A01 T02590189  RH  065%=      5-min Rain = 0
KCA1 151501Z 16011KT 26/19 A2978 RMK A01 T02600190  RH  066%=      5-min Rain = 0
KCA1 151502Z 15009KT 26/19 A2978 RMK A01 T02600189  RH  065%=      5-min Rain = 0
KCA1 151503Z 15007KT 26/19 A2978 RMK A01 T02600187  RH  064%=      5-min Rain = 0
KCA1 151504Z 14010KT 26/19 A2978 RMK A01 T02590188  RH  065%=      5-min Rain = 0
KCA1 151505Z 14009KT 26/19 A2978 RMK A01 T02590186  RH  064%=      5-min Rain = 0
KCA1 151506Z 14009KT 26/19 A2978 RMK A01 T02590188  RH  065%=      5-min Rain = 0
KCA1 151507Z 14008KT 26/19 A2978 RMK A01 T02590187  RH  064%=      5-min Rain = 0
KCA1 151508Z 12008KT 26/19 A2978 RMK A01 T02590188  RH  065%=      5-min Rain = 0
KCA1 151509Z 14008KT 26/19 A2978 RMK A01 T02590188  RH  065%=      5-min Rain = 0
KCA1 151510Z 13007KT 26/19 A2978 RMK A01 T02600188  RH  064%=      5-min Rain = 0
KCA1 151511Z 14006KT 26/19 A2978 RMK A01 T02600187  RH  064%=      5-min Rain = 0
KCA1 151512Z 12006KT 26/19 A2978 RMK A01 T02600188  RH  064%=      5-min Rain = 0
KCA1 151513Z 13006KT 26/19 A2978 RMK A01 T02610190  RH  065%=      5-min Rain = 0
KCA1 151514Z 14006KT 26/19 A2978 RMK A01 T02620189  RH  064%=      5-min Rain = 0
KCA1 151515Z 15008KT 26/19 A2978 RMK A01 T02630190  RH  064%=      5-min Rain = 0
KCA1 151516Z 15009KT 26/19 A2978 RMK A01 T02630188  RH  063%=      5-min Rain = 0
KCA1 151517Z 14008KT 26/19 A2978 RMK A01 T02630188  RH  063%=      5-min Rain = 0
KCA1 151518Z 14007KT 26/19 A2978 RMK A01 T02620186  RH  063%=      5-min Rain = 0
KCA1 151519Z 13006KT 26/19 A2978 RMK A01 T02600187  RH  064%=      5-min Rain = 0
KCA1 151520Z 13004KT 26/19 A2978 RMK A01 T02610190  RH  065%=      5-min Rain = 0
KCA1 151521Z 13006KT 26/19 A2978 RMK A01 T02630188  RH  063%=      5-min Rain = 0
KCA1 151522Z 14009KT 27/19 A2978 RMK A01 T02650190  RH  064%=      5-min Rain = 0
KCA1 151523Z 14009KT 27/19 A2978 RMK A01 T02650188  RH  063%=      5-min Rain = 0
KCA1 151524Z 14007KT 26/19 A2978 RMK A01 T02640189  RH  063%=      5-min Rain = 0
KCA1 151525Z 13006KT 26/19 A2978 RMK A01 T02640188  RH  063%=      5-min Rain = 0
KCA1 151526Z 13006KT 26/19 A2978 RMK A01 T02640185  RH  062%=      5-min Rain = 0
KCA1 151527Z 12007KT 26/19 A2978 RMK A01 T02630187  RH  063%=      5-min Rain = 0
KCA1 151528Z 11005KT 26/19 A2978 RMK A01 T02630188  RH  063%=      5-min Rain = 0
KCA1 151529Z 10007KT 26/19 A2978 RMK A01 T02640188  RH  063%=      5-min Rain = 0
KCA1 151530Z 15007KT 27/19 A2978 RMK A01 T02650190  RH  064%=      5-min Rain = 0
KCA1 151531Z 14008KT 27/19 A2978 RMK A01 T02650188  RH  062%=      5-min Rain = 0
KCA1 151532Z 13007KT 27/19 A2978 RMK A01 T02660186  RH  062%=      5-min Rain = 0
KCA1 151533Z 12005KT 27/18 A2978 RMK A01 T02660183  RH  061%=      5-min Rain = 0
KCA1 151534Z 13006KT 26/18 A2978 RMK A01 T02640184  RH  061%=      5-min Rain = 0
KCA1 151535Z 15009KT 27/19 A2978 RMK A01 T02650190  RH  063%=      5-min Rain = 0
KCA1 151536Z 16007KT 27/19 A2978 RMK A01 T02680188  RH  062%=      5-min Rain = 0
KCA1 151537Z 16007KT 27/19 A2978 RMK A01 T02690188  RH  061%=      5-min Rain = 0
KCA1 151538Z 16006KT 27/19 A2978 RMK A01 T02680189  RH  062%=      5-min Rain = 0
KCA1 151539Z 16007KT 27/19 A2978 RMK A01 T02680189  RH  062%=      5-min Rain = 0
KCA1 151540Z 14005KT 27/19 A2978 RMK A01 T02680188  RH  062%=      5-min Rain = 0
KCA1 151541Z 12009KT 27/19 A2978 RMK A01 T02680189  RH  062%=      5-min Rain = 0
KCA1 151542Z 12009KT 27/19 A2978 RMK A01 T02690187  RH  060%=      5-min Rain = 0
KCA1 151543Z 14005KT 27/19 A2978 RMK A01 T02690189  RH  061%=      5-min Rain = 0
KCA1 151544Z 10005KT 27/19 A2978 RMK A01 T02690188  RH  061%=      5-min Rain = 0
KCA1 151545Z 08006KT 27/19 A2978 RMK A01 T02700187  RH  061%=      5-min Rain = 0
KCA1 151546Z 12006KT 27/19 A2978 RMK A01 T02700191  RH  062%=      5-min Rain = 0
KCA1 151547Z 12006KT 27/19 A2978 RMK A01 T02720190  RH  061%=      5-min Rain = 0
KCA1 151548Z 14006KT 27/19 A2978 RMK A01 T02720190  RH  061%=      5-min Rain = 0
KCA1 151549Z 15006KT 27/19 A2978 RMK A01 T02720192  RH  062%=      5-min Rain = 0
KCA1 151550Z 15008KT 27/19 A2978 RMK A01 T02730189  RH  060%=      5-min Rain = 0
KCA1 151551Z 14004KT 27/19 A2978 RMK A01 T02730189  RH  060%=      5-min Rain = 0
KCA1 151552Z 14005KT 27/19 A2978 RMK A01 T02740191  RH  061%=      5-min Rain = 0
KCA1 151553Z 14009KT 28/19 A2978 RMK A01 T02760194  RH  061%=      5-min Rain = 0
KCA1 151554Z 13008KT 28/19 A2978 RMK A01 T02760189  RH  059%=      5-min Rain = 0
KCA1 151555Z 13007KT 28/19 A2978 RMK A01 T02750187  RH  058%=      5-min Rain = 0
KCA1 151556Z 14006KT 27/19 A2978 RMK A01 T02730187  RH  059%=      5-min Rain = 0
KCA1 151557Z 14006KT 27/19 A2978 RMK A01 T02730187  RH  059%=      5-min Rain = 0
KCA1 151558Z 15005KT 27/19 A2978 RMK A01 T02730188  RH  060%=      5-min Rain = 0
KCA1 151559Z 16007KT 27/19 A2978 RMK A01 T02730187  RH  060%=      5-min Rain = 0
KCA1 151600Z 16005KT 27/18 A2978 RMK A01 T02730184  RH  058%=      5-min Rain = 0
KCA1 151601Z 18000KT 27/18 A2978 RMK A01 T02720182  RH  058%=      5-min Rain = 0
KCA1 151602Z 19002KT 27/18 A2978 RMK A01 T02720182  RH  058%=      5-min Rain = 0
KCA1 151603Z 16006KT 27/19 A2978 RMK A01 T02720190  RH  061%=      5-min Rain = 0
KCA1 151604Z 11005KT 27/19 A2978 RMK A01 T02730186  RH  059%=      5-min Rain = 0
KCA1 151605Z 15005KT 27/19 A2978 RMK A01 T02740188  RH  060%=      5-min Rain = 0
KCA1 151606Z 17006KT 28/19 A2978 RMK A01 T02760192  RH  060%=      5-min Rain = 0
KCA1 151607Z 15006KT 28/19 A2978 RMK A01 T02770191  RH  059%=      5-min Rain = 0
KCA1 151608Z 14006KT 28/19 A2978 RMK A01 T02770185  RH  057%=      5-min Rain = 0
KCA1 151609Z 16005KT 28/19 A2978 RMK A01 T02750186  RH  058%=      5-min Rain = 0
KCA1 151610Z 19005KT 27/18 A2978 RMK A01 T02730183  RH  058%=      5-min Rain = 0
KCA1 151611Z 19004KT 27/18 A2978 RMK A01 T02710183  RH  058%=      5-min Rain = 0
KCA1 151612Z 13005KT 27/19 A2978 RMK A01 T02700187  RH  060%=      5-min Rain = 0
KCA1 151613Z 13003KT 27/18 A2978 RMK A01 T02720181  RH  058%=      5-min Rain = 0
KCA1 151614Z 12003KT 27/18 A2979 RMK A01 T02720183  RH  058%=      5-min Rain = 0
KCA1 151615Z 06002KT 27/18 A2979 RMK A01 T02720181  RH  058%=      5-min Rain = 0
KCA1 151616Z 05002KT 27/18 A2979 RMK A01 T02720182  RH  058%=      5-min Rain = 0
KCA1 151617Z 08002KT 27/18 A2979 RMK A01 T02730184  RH  058%=      5-min Rain = 0
KCA1 151618Z 11005KT 28/19 A2979 RMK A01 T02750185  RH  058%=      5-min Rain = 0
KCA1 151619Z 12005KT 28/19 A2979 RMK A01 T02770186  RH  057%=      5-min Rain = 0
KCA1 151620Z 11005KT 28/18 A2979 RMK A01 T02780183  RH  056%=      5-min Rain = 0
KCA1 151621Z 11005KT 28/19 A2979 RMK A01 T02780187  RH  058%=      5-min Rain = 0
KCA1 151622Z 11004KT 28/18 A2979 RMK A01 T02780181  RH  056%=      5-min Rain = 0
KCA1 151623Z 11004KT 28/18 A2979 RMK A01 T02760183  RH  057%=      5-min Rain = 0
KCA1 151624Z 11005KT 28/18 A2979 RMK A01 T02750183  RH  057%=      5-min Rain = 0
KCA1 151625Z 09004KT 28/18 A2979 RMK A01 T02750180  RH  056%=      5-min Rain = 0
KCA1 151626Z 09003KT 27/18 A2979 RMK A01 T02730178  RH  056%=      5-min Rain = 0
KCA1 151627Z 07001KT 27/18 A2979 RMK A01 T02730178  RH  056%=      5-min Rain = 0
KCA1 151628Z 03001KT 27/18 A2979 RMK A01 T02730176  RH  056%=      5-min Rain = 0
KCA1 151629Z 03001KT 27/18 A2979 RMK A01 T02740176  RH  055%=      5-min Rain = 0
KCA1 151630Z 00000KT 28/18 A2979 RMK A01 T02750176  RH  055%=      5-min Rain = 0
KCA1 151631Z 31001KT 28/18 A2979 RMK A01 T02760176  RH  055%=      5-min Rain = 0
KCA1 151632Z 27001KT 28/18 A2979 RMK A01 T02770177  RH  055%=      5-min Rain = 0
KCA1 151633Z 27001KT 28/18 A2979 RMK A01 T02770176  RH  054%=      5-min Rain = 0
KCA1 151634Z 22000KT 28/18 A2979 RMK A01 T02760176  RH  055%=      5-min Rain = 0
KCA1 151635Z 00000KT 28/18 A2979 RMK A01 T02760178  RH  055%=      5-min Rain = 0
KCA1 151636Z 00001KT 28/18 A2979 RMK A01 T02790181  RH  055%=      5-min Rain = 0
KCA1 151637Z 29001KT 28/18 A2979 RMK A01 T02810181  RH  054%=      5-min Rain = 0
KCA1 151638Z 28002KT 28/18 A2979 RMK A01 T02820181  RH  054%=      5-min Rain = 0
KCA1 151639Z 27002KT 28/19 A2979 RMK A01 T02820185  RH  056%=      5-min Rain = 0
KCA1 151640Z 25002KT 28/19 A2979 RMK A01 T02830188  RH  056%=      5-min Rain = 0
KCA1 151641Z 23002KT 28/18 A2979 RMK A01 T02840181  RH  054%=      5-min Rain = 0
KCA1 151642Z 25002KT 28/18 A2979 RMK A01 T02830180  RH  053%=      5-min Rain = 0
KCA1 151643Z 26002KT 28/18 A2979 RMK A01 T02820183  RH  055%=      5-min Rain = 0
KCA1 151644Z 25002KT 28/18 A2979 RMK A01 T02810182  RH  055%=      5-min Rain = 0
KCA1 151645Z 25003KT 28/18 A2979 RMK A01 T02810183  RH  055%=      5-min Rain = 0
KCA1 151646Z 24002KT 28/18 A2979 RMK A01 T02800182  RH  055%=      5-min Rain = 0
KCA1 151647Z 01004G10KT 28/18 A2979 RMK A01 T02800183  RH  056%=      5-min Rain = 0
KCA1 151648Z 02004KT 28/18 A2979 RMK A01 T02810184  RH  056%=      5-min Rain = 0
KCA1 151649Z 35005KT 28/19 A2979 RMK A01 T02830185  RH  055%=      5-min Rain = 0
KCA1 151650Z 00005KT 28/18 A2979 RMK A01 T02840182  RH  054%=      5-min Rain = 0
KCA1 151651Z 01004KT 28/18 A298 RMK A01 T02830181  RH  054%=      5-min Rain = 0
KCA1 151652Z 03002KT 28/18 A298 RMK A01 T02820183  RH  055%=      5-min Rain = 0
KCA1 151653Z 34001KT 28/18 A298 RMK A01 T02830183  RH  055%=      5-min Rain = 0
KCA1 151654Z 32003KT 28/19 A298 RMK A01 T02840185  RH  055%=      5-min Rain = 0
KCA1 151655Z 30004KT 29/19 A298 RMK A01 T02860185  RH  054%=      5-min Rain = 0
KCA1 151656Z 29004KT 29/18 A298 RMK A01 T02850184  RH  054%=      5-min Rain = 0
KCA1 151657Z 33003KT 28/18 A298 RMK A01 T02840184  RH  054%=      5-min Rain = 0
KCA1 151658Z 01005KT 29/19 A298 RMK A01 T02850186  RH  055%=      5-min Rain = 0
KCA1 151659Z 01006KT 29/18 A298 RMK A01 T02870183  RH  053%=      5-min Rain = 0
KCA1 151700Z 01003KT 29/18 A298 RMK A01 T02860180  RH  053%=      5-min Rain = 0
KCA1 151701Z 35002KT 29/18 A298 RMK A01 T02850179  RH  053%=      5-min Rain = 0
KCA1 151702Z 01002KT 28/18 A298 RMK A01 T02840183  RH  054%=      5-min Rain = 0
KCA1 151703Z 01004KT 28/18 A298 RMK A01 T02840181  RH  054%=      5-min Rain = 0
KCA1 151704Z 36004KT 29/19 A298 RMK A01 T02850186  RH  055%=      5-min Rain = 0
KCA1 151705Z 35007KT 29/19 A298 RMK A01 T02880190  RH  055%=      5-min Rain = 0
KCA1 151706Z 36005KT 29/18 A298 RMK A01 T02900184  RH  053%=      5-min Rain = 0
KCA1 151707Z 36004KT 29/18 A298 RMK A01 T02880180  RH  052%=      5-min Rain = 0
KCA1 151708Z 33002KT 29/18 A298 RMK A01 T02850179  RH  053%=      5-min Rain = 0
KCA1 151709Z 34002KT 28/18 A298 RMK A01 T02840182  RH  054%=      5-min Rain = 0
KCA1 151710Z 34002KT 28/18 A298 RMK A01 T02840182  RH  054%=      5-min Rain = 0
KCA1 151711Z 07002KT 29/19 A298 RMK A01 T02850186  RH  055%=      5-min Rain = 0
KCA1 151712Z 07001KT 29/19 A298 RMK A01 T02870187  RH  055%=      5-min Rain = 0
KCA1 151713Z 12002KT 29/19 A298 RMK A01 T02890186  RH  054%=      5-min Rain = 0
KCA1 151714Z 08001KT 29/19 A298 RMK A01 T02910185  RH  053%=      5-min Rain = 0
KCA1 151715Z 28003KT 29/19 A298 RMK A01 T02920186  RH  053%=      5-min Rain = 0
KCA1 151716Z 32003KT 29/18 A298 RMK A01 T02910183  RH  052%=      5-min Rain = 0
KCA1 151717Z 00003KT 29/19 A298 RMK A01 T02900186  RH  054%=      5-min Rain = 0
KCA1 151718Z 04006KT 29/19 A298 RMK A01 T02900187  RH  054%=      5-min Rain = 0
KCA1 151719Z 00005KT 29/18 A298 RMK A01 T02910184  RH  052%=      5-min Rain = 0
KCA1 151720Z 35005KT 29/19 A298 RMK A01 T02900185  RH  053%=      5-min Rain = 0
KCA1 151721Z 33003KT 29/18 A298 RMK A01 T02900183  RH  052%=      5-min Rain = 0
KCA1 151722Z 33005KT 29/18 A298 RMK A01 T02880184  RH  053%=      5-min Rain = 0
KCA1 151723Z 02005KT 29/18 A298 RMK A01 T02880184  RH  053%=      5-min Rain = 0
KCA1 151724Z 02004KT 29/18 A298 RMK A01 T02870183  RH  054%=      5-min Rain = 0
KCA1 151725Z 05004KT 29/18 A298 RMK A01 T02860184  RH  054%=      5-min Rain = 0
KCA1 151726Z 09003KT 29/18 A298 RMK A01 T02860184  RH  054%=      5-min Rain = 0
KCA1 151727Z 05002KT 29/19 A298 RMK A01 T02870185  RH  054%=      5-min Rain = 0
KCA1 151728Z 02002KT 29/18 A298 RMK A01 T02880183  RH  053%=      5-min Rain = 0
KCA1 151729Z 01001G6KT 29/18 A298 RMK A01 T02870183  RH  053%=      5-min Rain = 0
KCA1 151730Z 01005KT 29/19 A298 RMK A01 T02870186  RH  054%=      5-min Rain = 0
KCA1 151731Z 01006KT 29/19 A298 RMK A01 T02880185  RH  054%=      5-min Rain = 0
KCA1 151732Z 01004KT 29/19 A298 RMK A01 T02880187  RH  054%=      5-min Rain = 0
KCA1 151733Z 01007KT 29/19 A298 RMK A01 T02880185  RH  054%=      5-min Rain = 0
KCA1 151734Z 01006KT 29/19 A298 RMK A01 T02880185  RH  054%=      5-min Rain = 0
KCA1 151735Z 00006KT 29/19 A298 RMK A01 T02870187  RH  055%=      5-min Rain = 0
KCA1 151736Z 01004KT 29/19 A298 RMK A01 T02880185  RH  054%=      5-min Rain = 0
KCA1 151737Z 03002KT 29/19 A298 RMK A01 T02880185  RH  054%=      5-min Rain = 0
KCA1 151738Z 06002KT 29/19 A298 RMK A01 T02880186  RH  054%=      5-min Rain = 0
KCA1 151739Z 05001KT 29/19 A298 RMK A01 T02880185  RH  054%=      5-min Rain = 0
KCA1 151740Z 00003KT 29/19 A298 RMK A01 T02890187  RH  054%=      5-min Rain = 0
KCA1 151741Z 35005KT 29/19 A298 RMK A01 T02900189  RH  054%=      5-min Rain = 0
KCA1 151742Z 00004KT 29/19 A298 RMK A01 T02920188  RH  054%=      5-min Rain = 0
KCA1 151743Z 00006KT 29/19 A298 RMK A01 T02930187  RH  053%=      5-min Rain = 0
KCA1 151744Z 02006KT 29/19 A298 RMK A01 T02920189  RH  054%=      5-min Rain = 0
KCA1 151745Z 04009KT 29/19 A298 RMK A01 T02910191  RH  055%=      5-min Rain = 0
KCA1 151746Z 04007KT 29/19 A298 RMK A01 T02920186  RH  053%=      5-min Rain = 0
KCA1 151747Z 05008KT 29/19 A298 RMK A01 T02920188  RH  054%=      5-min Rain = 0
KCA1 151748Z 06006KT 29/19 A298 RMK A01 T02920187  RH  053%=      5-min Rain = 0
KCA1 151749Z 05007KT 29/19 A298 RMK A01 T02920190  RH  054%=      5-min Rain = 0
KCA1 151750Z 03005KT 29/19 A298 RMK A01 T02940187  RH  052%=      5-min Rain = 0
KCA1 151751Z 02004KT 29/19 A298 RMK A01 T02930189  RH  053%=      5-min Rain = 0
KCA1 151752Z 05007KT 30/19 A298 RMK A01 T02950193  RH  054%=      5-min Rain = 0
KCA1 151753Z 02010KT 30/19 A298 RMK A01 T02980193  RH  053%=      5-min Rain = 0
KCA1 151754Z 02008KT 30/19 A298 RMK A01 T02980193  RH  053%=      5-min Rain = 0
KCA1 151755Z 01008KT 30/19 A298 RMK A01 T02970194  RH  054%=      5-min Rain = 0
KCA1 151756Z 03009KT 29/19 A298 RMK A01 T02940193  RH  054%=      5-min Rain = 0
KCA1 151757Z 02009KT 29/19 A298 RMK A01 T02910192  RH  055%=      5-min Rain = 0
KCA1 151758Z 01010KT 29/19 A298 RMK A01 T02900188  RH  054%=      5-min Rain = 0
KCA1 151759Z 00007KT 29/19 A2981 RMK A01 T02890187  RH  054%=      5-min Rain = 0
KCA1 151800Z 01010KT 29/19 A298 RMK A01 T02910187  RH  054%=      5-min Rain = 0
KCA1 151801Z 01006KT 29/19 A2981 RMK A01 T02910188  RH  054%=      5-min Rain = 0
KCA1 151802Z 02008KT 29/19 A2981 RMK A01 T02900192  RH  055%=      5-min Rain = 0
KCA1 151803Z 02008KT 29/19 A2981 RMK A01 T02900190  RH  055%=      5-min Rain = 0
KCA1 151804Z 01005KT 29/19 A2981 RMK A01 T02900189  RH  054%=      5-min Rain = 0
KCA1 151805Z 01007KT 29/20 A2981 RMK A01 T02910195  RH  056%=      5-min Rain = 0
KCA1 151806Z 00006KT 30/19 A2981 RMK A01 T02960194  RH  054%=      5-min Rain = 0
KCA1 151807Z 36006KT 30/19 A298 RMK A01 T02970193  RH  054%=      5-min Rain = 0
KCA1 151808Z 36006KT 30/19 A298 RMK A01 T02970193  RH  054%=      5-min Rain = 0
KCA1 151809Z 03008KT 30/20 A2981 RMK A01 T02980195  RH  054%=      5-min Rain = 0
KCA1 151810Z 03009KT 30/19 A2981 RMK A01 T02980191  RH  053%=      5-min Rain = 0
KCA1 151811Z 04009KT 30/19 A2981 RMK A01 T02960191  RH  053%=      5-min Rain = 0
KCA1 151812Z 03010KT 30/19 A298 RMK A01 T02950193  RH  054%=      5-min Rain = 0
KCA1 151813Z 02010KT 30/20 A2981 RMK A01 T02960195  RH  054%=      5-min Rain = 0
KCA1 151814Z 02008KT 30/20 A298 RMK A01 T02970195  RH  054%=      5-min Rain = 0
KCA1 151815Z 03009KT 30/19 A298 RMK A01 T02980193  RH  053%=      5-min Rain = 0
KCA1 151816Z 01011KT 30/19 A2981 RMK A01 T02980192  RH  053%=      5-min Rain = 0
KCA1 151817Z 03008KT 30/19 A2981 RMK A01 T02970192  RH  053%=      5-min Rain = 0
KCA1 151818Z 03009KT 30/19 A2981 RMK A01 T02970193  RH  054%=      5-min Rain = 0
KCA1 151819Z 01005KT 30/19 A2981 RMK A01 T02970192  RH  053%=      5-min Rain = 0
KCA1 151820Z 00003KT 30/19 A298 RMK A01 T02970187  RH  052%=      5-min Rain = 0
KCA1 151821Z 01006KT 30/19 A298 RMK A01 T02980194  RH  054%=      5-min Rain = 0
KCA1 151822Z 03007KT 30/19 A298 RMK A01 T03000191  RH  052%=      5-min Rain = 0
KCA1 151823Z 03008KT 30/20 A2981 RMK A01 T03010196  RH  053%=      5-min Rain = 0
KCA1 151824Z 04010KT 30/20 A2981 RMK A01 T03020196  RH  053%=      5-min Rain = 0
KCA1 151825Z 05009KT 30/20 A2981 RMK A01 T03030195  RH  052%=      5-min Rain = 0
KCA1 151826Z 05007KT 30/19 A2981 RMK A01 T03040194  RH  052%=      5-min Rain = 0
KCA1 151827Z 04007KT 30/20 A2981 RMK A01 T03030197  RH  053%=      5-min Rain = 0
KCA1 151828Z 05007KT 30/20 A2981 RMK A01 T03030196  RH  053%=      5-min Rain = 0
KCA1 151829Z 03005G10KT 30/19 A2981 RMK A01 T03010193  RH  053%=      5-min Rain = 0
KCA1 151830Z 05009KT 30/20 A2981 RMK A01 T02980195  RH  054%=      5-min Rain = 0
KCA1 151831Z 05007KT 30/20 A2981 RMK A01 T02970196  RH  055%=      5-min Rain = 0
KCA1 151832Z 03012KT 30/19 A2981 RMK A01 T02970194  RH  054%=      5-min Rain = 0
KCA1 151833Z 04011KT 29/19 A2981 RMK A01 T02940193  RH  054%=      5-min Rain = 0
KCA1 151834Z 04011KT 29/19 A2981 RMK A01 T02930194  RH  055%=      5-min Rain = 0
KCA1 151835Z 04009KT 29/19 A2981 RMK A01 T02920193  RH  055%=      5-min Rain = 0
KCA1 151836Z 04008KT 29/19 A2981 RMK A01 T02930191  RH  054%=      5-min Rain = 0
KCA1 151837Z 05008KT 29/19 A2981 RMK A01 T02940192  RH  054%=      5-min Rain = 0
KCA1 151838Z 05008KT 30/19 A2981 RMK A01 T02950191  RH  053%=      5-min Rain = 0
KCA1 151839Z 05007KT 30/19 A2981 RMK A01 T02950190  RH  053%=      5-min Rain = 0
KCA1 151840Z 04007KT 30/19 A2981 RMK A01 T02960189  RH  053%=      5-min Rain = 0
KCA1 151841Z 05006KT 30/19 A2981 RMK A01 T02970193  RH  054%=      5-min Rain = 0
KCA1 151842Z 05010KT 30/20 A2981 RMK A01 T02990195  RH  053%=      5-min Rain = 0
KCA1 151843Z 06009KT 30/19 A2981 RMK A01 T03000192  RH  052%=      5-min Rain = 0
KCA1 151844Z 06007KT 30/19 A2981 RMK A01 T02970192  RH  053%=      5-min Rain = 0
KCA1 151845Z 06005KT 30/19 A2981 RMK A01 T02960191  RH  053%=      5-min Rain = 0
KCA1 151846Z 03008KT 30/19 A2981 RMK A01 T02950194  RH  054%=      5-min Rain = 0
KCA1 151847Z 02011KT 29/19 A2981 RMK A01 T02940194  RH  055%=      5-min Rain = 0
KCA1 151848Z 04011KT 29/20 A2981 RMK A01 T02940197  RH  056%=      5-min Rain = 0
KCA1 151849Z 05012KT 29/19 A2981 RMK A01 T02940194  RH  055%=      5-min Rain = 0
KCA1 151850Z 05008KT 29/19 A2981 RMK A01 T02930191  RH  054%=      5-min Rain = 0
KCA1 151851Z 05007KT 29/20 A2981 RMK A01 T02940197  RH  056%=      5-min Rain = 0
KCA1 151852Z 03010KT 30/19 A2981 RMK A01 T02980194  RH  054%=      5-min Rain = 0
KCA1 151853Z 04012KT 30/19 A2981 RMK A01 T02970194  RH  054%=      5-min Rain = 0
KCA1 151854Z 03013KT 29/20 A2981 RMK A01 T02940195  RH  055%=      5-min Rain = 0
KCA1 151855Z 02012KT 29/19 A2981 RMK A01 T02910193  RH  056%=      5-min Rain = 0
KCA1 151856Z 03010KT 29/20 A2981 RMK A01 T02900196  RH  057%=      5-min Rain = 0
KCA1 151857Z 02009KT 29/20 A2981 RMK A01 T02930200  RH  057%=      5-min Rain = 0
KCA1 151858Z 02010KT 30/20 A2981 RMK A01 T02950195  RH  055%=      5-min Rain = 0
KCA1 151859Z 02011KT 29/19 A2981 RMK A01 T02930194  RH  055%=      5-min Rain = 0
KCA1 151900Z 02007KT 29/19 A2981 RMK A01 T02910193  RH  055%=      5-min Rain = 0
KCA1 151901Z 05006KT 29/19 A2981 RMK A01 T02910191  RH  055%=      5-min Rain = 0
KCA1 151902Z 04005KT 29/19 A2981 RMK A01 T02910189  RH  054%=      5-min Rain = 0
KCA1 151903Z 02007KT 29/19 A2981 RMK A01 T02910193  RH  056%=      5-min Rain = 0
KCA1 151904Z 05010KT 29/19 A2981 RMK A01 T02920194  RH  056%=      5-min Rain = 0
KCA1 151905Z 05013KT 29/20 A2981 RMK A01 T02920195  RH  056%=      5-min Rain = 0
KCA1 151906Z 05011KT 29/19 A2981 RMK A01 T02930193  RH  055%=      5-min Rain = 0
KCA1 151907Z 05010KT 30/19 A2981 RMK A01 T02960194  RH  054%=      5-min Rain = 0
KCA1 151908Z 05008KT 30/20 A2981 RMK A01 T03000201  RH  056%=      5-min Rain = 0
KCA1 151909Z 03009KT 30/20 A2981 RMK A01 T03020202  RH  055%=      5-min Rain = 0
KCA1 151910Z 04010KT 30/20 A2981 RMK A01 T03000199  RH  055%=      5-min Rain = 0
KCA1 151911Z 05009KT 30/20 A2981 RMK A01 T02960198  RH  056%=      5-min Rain = 0
KCA1 151912Z 03008KT 29/20 A2981 RMK A01 T02940199  RH  057%=      5-min Rain = 0
KCA1 151913Z 03009KT 29/20 A2981 RMK A01 T02930200  RH  057%=      5-min Rain = 0
KCA1 151914Z 03009KT 29/20 A2981 RMK A01 T02930196  RH  056%=      5-min Rain = 0
KCA1 151915Z 02010KT 29/20 A2981 RMK A01 T02920197  RH  056%=      5-min Rain = 0
KCA1 151916Z 03011KT 29/20 A2981 RMK A01 T02940199  RH  056%=      5-min Rain = 0
KCA1 151917Z 02008KT 30/20 A2981 RMK A01 T03000204  RH  056%=      5-min Rain = 0
KCA1 151918Z 04011KT 30/20 A2981 RMK A01 T03020200  RH  055%=      5-min Rain = 0
KCA1 151919Z 05011KT 30/20 A2981 RMK A01 T03040196  RH  053%=      5-min Rain = 0
KCA1 151920Z 05009KT 30/19 A2981 RMK A01 T03040192  RH  051%=      5-min Rain = 0
KCA1 151921Z 04011KT 30/20 A2981 RMK A01 T03020198  RH  054%=      5-min Rain = 0
KCA1 151922Z 04011KT 30/19 A2981 RMK A01 T03000194  RH  053%=      5-min Rain = 0
KCA1 151923Z 03009KT 30/19 A2981 RMK A01 T02980191  RH  053%=      5-min Rain = 0
KCA1 151924Z 03006KT 30/19 A2981 RMK A01 T02960189  RH  053%=      5-min Rain = 0
KCA1 151925Z 01004KT 29/19 A2981 RMK A01 T02940189  RH  053%=      5-min Rain = 0
KCA1 151926Z 05011KT 29/19 A2981 RMK A01 T02940194  RH  055%=      5-min Rain = 0
KCA1 151927Z 05011KT 30/19 A2981 RMK A01 T02970194  RH  054%=      5-min Rain = 0
KCA1 151928Z 03009KT 30/20 A2981 RMK A01 T02970196  RH  055%=      5-min Rain = 0
KCA1 151929Z 04010KT 30/20 A2981 RMK A01 T02970196  RH  055%=      5-min Rain = 0
KCA1 151930Z 04011KT 30/20 A2981 RMK A01 T02960196  RH  055%=      5-min Rain = 0
KCA1 151931Z 04010KT 30/19 A2981 RMK A01 T02950190  RH  053%=      5-min Rain = 0
KCA1 151932Z 03008KT 29/19 A2981 RMK A01 T02940193  RH  054%=      5-min Rain = 0
KCA1 151933Z 05009KT 30/19 A2981 RMK A01 T02970194  RH  054%=      5-min Rain = 0
KCA1 151934Z 06006KT 30/19 A2981 RMK A01 T03000191  RH  052%=      5-min Rain = 0
KCA1 151935Z 03008KT 30/19 A2981 RMK A01 T03020192  RH  052%=      5-min Rain = 0
KCA1 151936Z 02008KT 30/19 A2981 RMK A01 T03030194  RH  052%=      5-min Rain = 0
KCA1 151937Z 02008KT 30/19 A298 RMK A01 T03030192  RH  052%=      5-min Rain = 0
KCA1 151938Z 03008KT 30/20 A298 RMK A01 T03000195  RH  053%=      5-min Rain = 0
KCA1 151939Z 02007KT 30/20 A298 RMK A01 T02980198  RH  055%=      5-min Rain = 0
KCA1 151940Z 04008KT 30/20 A298 RMK A01 T02980200  RH  056%=      5-min Rain = 0
KCA1 151941Z 04012KT 30/20 A298 RMK A01 T02980199  RH  055%=      5-min Rain = 0
KCA1 151942Z 03012KT 30/20 A298 RMK A01 T02960197  RH  055%=      5-min Rain = 0
KCA1 151943Z 03009KT 29/19 A298 RMK A01 T02940193  RH  055%=      5-min Rain = 0
KCA1 151944Z 02008KT 29/20 A298 RMK A01 T02930195  RH  056%=      5-min Rain = 0
KCA1 151945Z 03009G14KT 29/20 A298 RMK A01 T02920196  RH  056%=      5-min Rain = 0
KCA1 151946Z 03010KT 29/20 A2981 RMK A01 T02940196  RH  056%=      5-min Rain = 0
KCA1 151947Z 04008KT 30/20 A2981 RMK A01 T02950195  RH  055%=      5-min Rain = 0
KCA1 151948Z 03011KT 30/20 A2981 RMK A01 T02950199  RH  056%=      5-min Rain = 0
KCA1 151949Z 03012KT 30/20 A2981 RMK A01 T02970201  RH  056%=      5-min Rain = 0
KCA1 151950Z 05013KT 30/20 A2981 RMK A01 T02970198  RH  055%=      5-min Rain = 0
KCA1 151951Z 04012KT 30/20 A2981 RMK A01 T02950197  RH  056%=      5-min Rain = 0
KCA1 151952Z 05012KT 29/20 A2981 RMK A01 T02940195  RH  055%=      5-min Rain = 0
KCA1 151953Z 04013KT 29/19 A2981 RMK A01 T02920193  RH  055%=      5-min Rain = 0
KCA1 151954Z 03011KT 29/20 A2981 RMK A01 T02910195  RH  056%=      5-min Rain = 0
KCA1 151955Z 05011KT 29/20 A2981 RMK A01 T02910197  RH  057%=      5-min Rain = 0
KCA1 151956Z 05009KT 29/20 A2981 RMK A01 T02940196  RH  056%=      5-min Rain = 0
KCA1 151957Z 04009KT 30/20 A2981 RMK A01 T02950198  RH  056%=      5-min Rain = 0
KCA1 151958Z 04006KT 30/20 A298 RMK A01 T02970200  RH  056%=      5-min Rain = 0
KCA1 151959Z 03011KT 30/21 A2981 RMK A01 T03020205  RH  056%=      5-min Rain = 0
KCA1 152000Z 04010KT 30/20 A2981 RMK A01 T03020199  RH  054%=      5-min Rain = 0
KCA1 152001Z 02006KT 30/20 A2981 RMK A01 T02990197  RH  054%=      5-min Rain = 0
KCA1 152002Z 02006KT 30/20 A298 RMK A01 T02970198  RH  055%=      5-min Rain = 0
KCA1 152003Z 04008KT 30/20 A2981 RMK A01 T02970200  RH  056%=      5-min Rain = 0
KCA1 152004Z 05009KT 30/19 A2981 RMK A01 T02960194  RH  054%=      5-min Rain = 0
KCA1 152005Z 03009KT 30/19 A298 RMK A01 T02970194  RH  054%=      5-min Rain = 0
KCA1 152006Z 02007KT 30/19 A298 RMK A01 T02980194  RH  054%=      5-min Rain = 0
KCA1 152007Z 02011KT 30/19 A298 RMK A01 T02980193  RH  053%=      5-min Rain = 0
KCA1 152008Z 02007KT 30/19 A298 RMK A01 T02980194  RH  054%=      5-min Rain = 0
KCA1 152009Z 04008KT 30/20 A298 RMK A01 T02990195  RH  054%=      5-min Rain = 0
KCA1 152010Z 04008KT 30/20 A298 RMK A01 T03000201  RH  055%=      5-min Rain = 0
KCA1 152011Z 05014KT 30/20 A2981 RMK A01 T03020202  RH  055%=      5-min Rain = 0
KCA1 152012Z 04014KT 30/20 A2981 RMK A01 T03010200  RH  055%=      5-min Rain = 0
KCA1 152013Z 04011KT 30/20 A2981 RMK A01 T03000199  RH  055%=      5-min Rain = 0
KCA1 152014Z 05012KT 30/20 A2981 RMK A01 T02990200  RH  055%=      5-min Rain = 0
KCA1 152015Z 05009KT 30/20 A2981 RMK A01 T02990198  RH  055%=      5-min Rain = 0
KCA1 152016Z 04010KT 30/20 A2981 RMK A01 T02970199  RH  056%=      5-min Rain = 0
KCA1 152017Z 04010KT 30/20 A2981 RMK A01 T02960198  RH  056%=      5-min Rain = 0
KCA1 152018Z 04010KT 30/20 A2981 RMK A01 T02950197  RH  056%=      5-min Rain = 0
KCA1 152019Z 04009KT 30/20 A298 RMK A01 T02960198  RH  056%=      5-min Rain = 0
KCA1 152020Z 03009KT 30/20 A298 RMK A01 T02990196  RH  054%=      5-min Rain = 0
KCA1 152021Z 03008KT 30/20 A298 RMK A01 T03000200  RH  055%=      5-min Rain = 0
KCA1 152022Z 03008KT 30/20 A298 RMK A01 T03010200  RH  054%=      5-min Rain = 0
KCA1 152023Z 02011KT 30/20 A298 RMK A01 T03020200  RH  054%=      5-min Rain = 0
KCA1 152024Z 03013KT 30/20 A298 RMK A01 T03010200  RH  055%=      5-min Rain = 0
KCA1 152025Z 04011KT 30/20 A298 RMK A01 T03010200  RH  055%=      5-min Rain = 0
KCA1 152026Z 04010KT 30/20 A298 RMK A01 T03020202  RH  055%=      5-min Rain = 0
KCA1 152027Z 04011KT 30/20 A298 RMK A01 T03030203  RH  055%=      5-min Rain = 0
KCA1 152028Z 03013KT 30/20 A298 RMK A01 T03040199  RH  053%=      5-min Rain = 0
KCA1 152029Z 05009KT 30/20 A298 RMK A01 T03040199  RH  053%=      5-min Rain = 0
KCA1 152030Z 05007KT 30/20 A298 RMK A01 T03040198  RH  053%=      5-min Rain = 0
KCA1 152031Z 05008KT 31/20 A298 RMK A01 T03050201  RH  054%=      5-min Rain = 0
KCA1 152032Z 04010KT 31/20 A298 RMK A01 T03050198  RH  053%=      5-min Rain = 0
KCA1 152033Z 03007KT 30/20 A298 RMK A01 T03030199  RH  054%=      5-min Rain = 0
KCA1 152034Z 03008KT 30/20 A298 RMK A01 T03030201  RH  054%=      5-min Rain = 0
KCA1 152035Z 04010KT 30/20 A298 RMK A01 T03040198  RH  053%=      5-min Rain = 0
KCA1 152036Z 03007KT 31/20 A298 RMK A01 T03050196  RH  052%=      5-min Rain = 0
KCA1 152037Z 04006KT 31/20 A298 RMK A01 T03050198  RH  053%=      5-min Rain = 0
KCA1 152038Z 03012KT 31/20 A298 RMK A01 T03060199  RH  053%=      5-min Rain = 0
KCA1 152039Z 03012KT 31/20 A298 RMK A01 T03080199  RH  052%=      5-min Rain = 0
KCA1 152040Z 04010KT 31/20 A298 RMK A01 T03080202  RH  053%=      5-min Rain = 0
KCA1 152041Z 04010KT 31/20 A298 RMK A01 T03100202  RH  053%=      5-min Rain = 0
KCA1 152042Z 05011KT 31/20 A298 RMK A01 T03110201  RH  052%=      5-min Rain = 0
KCA1 152043Z 06009KT 31/20 A298 RMK A01 T03100199  RH  052%=      5-min Rain = 0
KCA1 152044Z 06008KT 31/20 A298 RMK A01 T03100201  RH  052%=      5-min Rain = 0
KCA1 152045Z 04010G16KT 31/20 A298 RMK A01 T03110201  RH  052%=      5-min Rain = 0
KCA1 152046Z 05013KT 31/20 A298 RMK A01 T03110201  RH  052%=      5-min Rain = 0
KCA1 152047Z 05013KT 31/20 A298 RMK A01 T03110201  RH  052%=      5-min Rain = 0
KCA1 152048Z 04012KT 31/20 A298 RMK A01 T03090197  RH  051%=      5-min Rain = 0
KCA1 152049Z 05011KT 30/20 A298 RMK A01 T03030196  RH  053%=      5-min Rain = 0
KCA1 152050Z 07010KT 30/20 A298 RMK A01 T02990199  RH  055%=      5-min Rain = 0
KCA1 152051Z 06010KT 30/20 A298 RMK A01 T02970195  RH  054%=      5-min Rain = 0
KCA1 152052Z 05009KT 30/20 A298 RMK A01 T02960196  RH  055%=      5-min Rain = 0
KCA1 152053Z 06007KT 30/20 A298 RMK A01 T02960198  RH  056%=      5-min Rain = 0
KCA1 152054Z 05009KT 30/20 A298 RMK A01 T02960200  RH  056%=      5-min Rain = 0
KCA1 152055Z 06009KT 30/20 A298 RMK A01 T02990197  RH  055%=      5-min Rain = 0
KCA1 152056Z 06010KT 30/20 A298 RMK A01 T03000195  RH  053%=      5-min Rain = 0
KCA1 152057Z 06009KT 30/19 A298 RMK A01 T03010194  RH  053%=      5-min Rain = 0
KCA1 152058Z 06008KT 30/19 A298 RMK A01 T03000193  RH  053%=      5-min Rain = 0
KCA1 152059Z 05008KT 30/19 A298 RMK A01 T02990194  RH  053%=      5-min Rain = 0
KCA1 152100Z 05008KT 30/19 A298 RMK A01 T02980194  RH  054%=      5-min Rain = 0
KCA1 152101Z 08006KT 30/20 A298 RMK A01 T03010199  RH  054%=      5-min Rain = 0
KCA1 152102Z 08006KT 31/20 A298 RMK A01 T03060195  RH  052%=      5-min Rain = 0
KCA1 152103Z 05005KT 31/20 A298 RMK A01 T03080197  RH  052%=      5-min Rain = 0
KCA1 152104Z 03008KT 31/20 A298 RMK A01 T03100198  RH  051%=      5-min Rain = 0
KCA1 152105Z 03012KT 31/20 A298 RMK A01 T03100199  RH  052%=      5-min Rain = 0
KCA1 152106Z 04012KT 31/20 A298 RMK A01 T03100197  RH  051%=      5-min Rain = 0
KCA1 152107Z 04011KT 31/20 A298 RMK A01 T03080196  RH  051%=      5-min Rain = 0
KCA1 152108Z 04009KT 31/19 A298 RMK A01 T03070194  RH  051%=      5-min Rain = 0
KCA1 152109Z 03008KT 31/20 A298 RMK A01 T03050196  RH  052%=      5-min Rain = 0
KCA1 152110Z 03013KT 31/20 A298 RMK A01 T03060200  RH  053%=      5-min Rain = 0
KCA1 152111Z 03014KT 31/20 A298 RMK A01 T03060202  RH  054%=      5-min Rain = 0
KCA1 152112Z 04012KT 30/20 A298 RMK A01 T03040202  RH  055%=      5-min Rain = 0
KCA1 152113Z 04008KT 30/20 A298 RMK A01 T03010200  RH  054%=      5-min Rain = 0
KCA1 152114Z 03011KT 30/20 A298 RMK A01 T03000202  RH  056%=      5-min Rain = 0
KCA1 152115Z 03011KT 30/20 A298 RMK A01 T03020200  RH  054%=      5-min Rain = 0
KCA1 152116Z 03013KT 30/20 A298 RMK A01 T03030200  RH  054%=      5-min Rain = 0
KCA1 152117Z 06010KT 31/20 A298 RMK A01 T03050204  RH  055%=      5-min Rain = 0
KCA1 152118Z 05011KT 31/20 A298 RMK A01 T03070200  RH  053%=      5-min Rain = 0
KCA1 152119Z 05010KT 30/20 A298 RMK A01 T03040199  RH  053%=      5-min Rain = 0
KCA1 152120Z 06011KT 30/20 A298 RMK A01 T03010197  RH  054%=      5-min Rain = 0
KCA1 152121Z 07008KT 30/20 A298 RMK A01 T02980198  RH  055%=      5-min Rain = 0
KCA1 152122Z 07009KT 30/20 A298 RMK A01 T02960201  RH  057%=      5-min Rain = 0
KCA1 152123Z 06011KT 30/20 A298 RMK A01 T02960201  RH  057%=      5-min Rain = 0
KCA1 152124Z 05010KT 30/20 A2981 RMK A01 T02990200  RH  055%=      5-min Rain = 0
KCA1 152125Z 04011KT 30/20 A298 RMK A01 T03010202  RH  055%=      5-min Rain = 0
KCA1 152126Z 04007KT 30/20 A298 RMK A01 T03030199  RH  054%=      5-min Rain = 0
KCA1 152127Z 05007KT 30/20 A298 RMK A01 T03040201  RH  054%=      5-min Rain = 0
KCA1 152128Z 06007KT 31/20 A298 RMK A01 T03070201  RH  053%=      5-min Rain = 0
KCA1 152129Z 04004KT 31/20 A298 RMK A01 T03080203  RH  053%=      5-min Rain = 0
KCA1 152130Z 05006KT 31/21 A298 RMK A01 T03110205  RH  054%=      5-min Rain = 0
KCA1 152131Z 05006KT 31/21 A298 RMK A01 T03130207  RH  053%=      5-min Rain = 0
KCA1 152132Z 04011KT 32/20 A2981 RMK A01 T03150203  RH  052%=      5-min Rain = 0
KCA1 152133Z 03009KT 31/20 A2981 RMK A01 T03110200  RH  052%=      5-min Rain = 0
KCA1 152134Z 04010KT 31/20 A2981 RMK A01 T03070201  RH  053%=      5-min Rain = 0
KCA1 152135Z 06011KT 30/20 A2981 RMK A01 T03040200  RH  054%=      5-min Rain = 0
KCA1 152136Z 07007KT 30/20 A2981 RMK A01 T03030203  RH  055%=      5-min Rain = 0
KCA1 152137Z 08008KT 30/20 A2981 RMK A01 T03030204  RH  055%=      5-min Rain = 0
KCA1 152138Z 08010KT 30/20 A2981 RMK A01 T03040198  RH  053%=      5-min Rain = 0
KCA1 152139Z 08007KT 30/20 A2981 RMK A01 T03020199  RH  054%=      5-min Rain = 0
KCA1 152140Z 06006KT 30/20 A2981 RMK A01 T03010202  RH  056%=      5-min Rain = 0
KCA1 152141Z 06007KT 30/20 A2981 RMK A01 T03010200  RH  055%=      5-min Rain = 0
KCA1 152142Z 06005KT 30/20 A2981 RMK A01 T03010199  RH  054%=      5-min Rain = 0
KCA1 152143Z 06004KT 30/20 A2981 RMK A01 T03010198  RH  054%=      5-min Rain = 0
KCA1 152144Z 06005KT 30/20 A2981 RMK A01 T03000200  RH  055%=      5-min Rain = 0
KCA1 152145Z 05007KT 30/20 A2981 RMK A01 T03000204  RH  056%=      5-min Rain = 0
KCA1 152146Z 05007KT 30/20 A2981 RMK A01 T03000202  RH  056%=      5-min Rain = 0
KCA1 152147Z 07008KT 30/20 A2981 RMK A01 T03000198  RH  054%=      5-min Rain = 0
KCA1 152148Z 07007KT 30/20 A2981 RMK A01 T02980198  RH  055%=      5-min Rain = 0
KCA1 152149Z 07004KT 30/20 A2981 RMK A01 T02980199  RH  055%=      5-min Rain = 0
KCA1 152150Z 07006KT 30/20 A2981 RMK A01 T02980202  RH  056%=      5-min Rain = 0
KCA1 152151Z 06006KT 30/20 A2981 RMK A01 T02980201  RH  056%=      5-min Rain = 0
KCA1 152152Z 07005KT 30/20 A2981 RMK A01 T02980200  RH  056%=      5-min Rain = 0
KCA1 152153Z 07006KT 30/20 A298 RMK A01 T02980198  RH  055%=      5-min Rain = 0
KCA1 152154Z 05008KT 30/20 A298 RMK A01 T02980199  RH  055%=      5-min Rain = 0
KCA1 152155Z 04008KT 30/20 A298 RMK A01 T02980199  RH  055%=      5-min Rain = 0
KCA1 152156Z 05008KT 30/20 A298 RMK A01 T02980201  RH  056%=      5-min Rain = 0
KCA1 152157Z 05007KT 30/20 A298 RMK A01 T02980201  RH  056%=      5-min Rain = 0
KCA1 152158Z 06007KT 30/20 A298 RMK A01 T02980201  RH  056%=      5-min Rain = 0
KCA1 152159Z 07006KT 30/20 A2981 RMK A01 T02990200  RH  056%=      5-min Rain = 0
KCA1 152200Z 06007KT 30/20 A298 RMK A01 T02990201  RH  056%=      5-min Rain = 0
KCA1 152201Z 07007KT 30/20 A2981 RMK A01 T03000203  RH  056%=      5-min Rain = 0
KCA1 152202Z 06006KT 30/21 A298 RMK A01 T03010206  RH  057%=      5-min Rain = 0
KCA1 152203Z 05007KT 30/20 A2981 RMK A01 T03020203  RH  056%=      5-min Rain = 0
KCA1 152204Z 06006KT 30/20 A298 RMK A01 T03020201  RH  055%=      5-min Rain = 0
KCA1 152205Z 07007KT 30/20 A298 RMK A01 T03010202  RH  055%=      5-min Rain = 0
KCA1 152206Z 08008KT 30/20 A298 RMK A01 T03010200  RH  055%=      5-min Rain = 0
KCA1 152207Z 08008KT 30/20 A298 RMK A01 T03010196  RH  053%=      5-min Rain = 0
KCA1 152208Z 06009KT 30/20 A298 RMK A01 T03000197  RH  054%=      5-min Rain = 0
KCA1 152209Z 06008KT 30/20 A298 RMK A01 T02990197  RH  054%=      5-min Rain = 0
KCA1 152210Z 06006KT 30/20 A298 RMK A01 T02990198  RH  055%=      5-min Rain = 0
KCA1 152211Z 07008KT 30/20 A298 RMK A01 T03010199  RH  054%=      5-min Rain = 0
KCA1 152212Z 06007KT 30/20 A298 RMK A01 T03030197  RH  053%=      5-min Rain = 0
KCA1 152213Z 04008KT 30/20 A298 RMK A01 T03030201  RH  054%=      5-min Rain = 0
KCA1 152214Z 05006KT 31/21 A298 RMK A01 T03050205  RH  055%=      5-min Rain = 0
KCA1 152215Z 05008KT 31/21 A298 RMK A01 T03070205  RH  054%=      5-min Rain = 0
KCA1 152216Z 05010KT 31/20 A298 RMK A01 T03090198  RH  052%=      5-min Rain = 0
KCA1 152217Z 04008KT 31/20 A298 RMK A01 T03060199  RH  053%=      5-min Rain = 0
KCA1 152218Z 04009KT 30/20 A298 RMK A01 T03040198  RH  053%=      5-min Rain = 0
KCA1 152219Z 06007KT 30/20 A298 RMK A01 T03030202  RH  055%=      5-min Rain = 0
KCA1 152220Z 06008KT 31/20 A298 RMK A01 T03050198  RH  053%=      5-min Rain = 0
KCA1 152221Z 06009KT 31/20 A298 RMK A01 T03070200  RH  053%=      5-min Rain = 0
KCA1 152222Z 06010KT 31/19 A2979 RMK A01 T03100194  RH  050%=      5-min Rain = 0
KCA1 152223Z 04009KT 31/20 A2979 RMK A01 T03100195  RH  050%=      5-min Rain = 0
KCA1 152224Z 05008KT 31/19 A2979 RMK A01 T03090193  RH  050%=      5-min Rain = 0
KCA1 152225Z 05007KT 31/20 A2979 RMK A01 T03080195  RH  051%=      5-min Rain = 0
KCA1 152226Z 03008KT 31/20 A2979 RMK A01 T03080197  RH  052%=      5-min Rain = 0
KCA1 152227Z 04007KT 31/20 A2979 RMK A01 T03080197  RH  052%=      5-min Rain = 0
KCA1 152228Z 05010KT 31/20 A2979 RMK A01 T03050197  RH  052%=      5-min Rain = 0
KCA1 152229Z 04009KT 30/20 A2979 RMK A01 T03020197  RH  053%=      5-min Rain = 0
KCA1 152230Z 04009KT 30/20 A2979 RMK A01 T02990198  RH  055%=      5-min Rain = 0
KCA1 152231Z 05008KT 30/20 A2979 RMK A01 T02980199  RH  055%=      5-min Rain = 0
KCA1 152232Z 04009KT 30/20 A2979 RMK A01 T02970197  RH  055%=      5-min Rain = 0
KCA1 152233Z 04009KT 30/20 A2979 RMK A01 T02960197  RH  055%=      5-min Rain = 0
KCA1 152234Z 04010KT 30/20 A2979 RMK A01 T02960197  RH  055%=      5-min Rain = 0
KCA1 152235Z 04009KT 30/20 A2979 RMK A01 T02950195  RH  055%=      5-min Rain = 0
KCA1 152236Z 04006KT 30/20 A2978 RMK A01 T02950199  RH  056%=      5-min Rain = 0
KCA1 152237Z 05007KT 30/20 A2978 RMK A01 T02950201  RH  057%=      5-min Rain = 0
KCA1 152238Z 04006KT 30/20 A2978 RMK A01 T02950197  RH  056%=      5-min Rain = 0
KCA1 152239Z 05006KT 30/20 A2978 RMK A01 T02970199  RH  056%=      5-min Rain = 0
KCA1 152240Z 05011KT 30/20 A2978 RMK A01 T03000199  RH  055%=      5-min Rain = 0
KCA1 152241Z 05012KT 30/20 A2978 RMK A01 T03040196  RH  053%=      5-min Rain = 0
KCA1 152242Z 05012KT 31/20 A2977 RMK A01 T03050196  RH  052%=      5-min Rain = 0
KCA1 152243Z 06014KT 31/20 A2977 RMK A01 T03060198  RH  052%=      5-min Rain = 0
KCA1 152244Z 07012KT 31/20 A2977 RMK A01 T03060200  RH  053%=      5-min Rain = 0
KCA1 152245Z 07015KT 31/20 A2977 RMK A01 T03070201  RH  053%=      5-min Rain = 0
KCA1 152246Z 07013KT 31/20 A2977 RMK A01 T03070198  RH  052%=      5-min Rain = 0
KCA1 152247Z 06013KT 31/20 A2977 RMK A01 T03050200  RH  053%=      5-min Rain = 0
KCA1 152248Z 06012KT 31/20 A2977 RMK A01 T03050200  RH  054%=      5-min Rain = 0
KCA1 152249Z 05015KT 31/20 A2977 RMK A01 T03050198  RH  053%=      5-min Rain = 0
KCA1 152250Z 05014KT 30/20 A2977 RMK A01 T03040197  RH  053%=      5-min Rain = 0
KCA1 152251Z 05011KT 30/20 A2977 RMK A01 T03040198  RH  053%=      5-min Rain = 0
KCA1 152252Z 07012G17KT 30/20 A2977 RMK A01 T03040200  RH  054%=      5-min Rain = 0
KCA1 152253Z 07013KT 30/20 A2977 RMK A01 T03040196  RH  053%=      5-min Rain = 0
KCA1 152254Z 07015KT 30/20 A2977 RMK A01 T03030196  RH  053%=      5-min Rain = 0
KCA1 152255Z 08013KT 30/20 A2977 RMK A01 T03030196  RH  053%=      5-min Rain = 0
KCA1 152256Z 06010KT 30/20 A2977 RMK A01 T03020198  RH  054%=      5-min Rain = 0
KCA1 152257Z 05011KT 30/20 A2977 RMK A01 T03020199  RH  054%=      5-min Rain = 0
KCA1 152258Z 06012KT 30/20 A2977 RMK A01 T03030198  RH  053%=      5-min Rain = 0
KCA1 152259Z 06011KT 30/20 A2977 RMK A01 T03040198  RH  053%=      5-min Rain = 0
KCA1 152300Z 06011KT 30/20 A2977 RMK A01 T03040199  RH  054%=      5-min Rain = 0
KCA1 152301Z 07010KT 30/20 A2977 RMK A01 T03040200  RH  054%=      5-min Rain = 0
KCA1 152302Z 07012KT 31/20 A2977 RMK A01 T03050200  RH  053%=      5-min Rain = 0
KCA1 152303Z 06012KT 31/20 A2977 RMK A01 T03050198  RH  053%=      5-min Rain = 0
KCA1 152304Z 07010KT 30/20 A2978 RMK A01 T03040198  RH  053%=      5-min Rain = 0
KCA1 152305Z 07010KT 30/20 A2978 RMK A01 T03040199  RH  053%=      5-min Rain = 0
KCA1 152306Z 07009KT 30/20 A2978 RMK A01 T03040200  RH  054%=      5-min Rain = 0
KCA1 152307Z 05010KT 31/20 A2978 RMK A01 T03050202  RH  054%=      5-min Rain = 0
KCA1 152308Z 07011KT 31/20 A2978 RMK A01 T03060201  RH  054%=      5-min Rain = 0
KCA1 152309Z 07008KT 31/20 A2978 RMK A01 T03060200  RH  053%=      5-min Rain = 0
KCA1 152310Z 07009KT 31/20 A2978 RMK A01 T03060200  RH  053%=      5-min Rain = 0
KCA1 152311Z 08009KT 31/20 A2978 RMK A01 T03050199  RH  053%=      5-min Rain = 0
KCA1 152312Z 07011KT 31/20 A2978 RMK A01 T03050200  RH  053%=      5-min Rain = 0
KCA1 152313Z 07012KT 31/20 A2978 RMK A01 T03060199  RH  053%=      5-min Rain = 0
KCA1 152314Z 06009KT 31/20 A2978 RMK A01 T03060195  RH  052%=      5-min Rain = 0
KCA1 152315Z 06010KT 31/20 A2978 RMK A01 T03060196  RH  052%=      5-min Rain = 0
KCA1 152316Z 06011KT 30/20 A2978 RMK A01 T03030196  RH  053%=      5-min Rain = 0
KCA1 152317Z 05009KT 30/20 A2978 RMK A01 T03000198  RH  054%=      5-min Rain = 0
KCA1 152318Z 05009KT 30/20 A2978 RMK A01 T02980195  RH  054%=      5-min Rain = 0
KCA1 152319Z 05011KT 30/19 A2978 RMK A01 T02970194  RH  054%=      5-min Rain = 0
KCA1 152320Z 05008KT 30/20 A2978 RMK A01 T02970195  RH  054%=      5-min Rain = 0
KCA1 152321Z 05010KT 30/20 A2978 RMK A01 T03000196  RH  054%=      5-min Rain = 0
KCA1 152322Z 05009KT 30/20 A2978 RMK A01 T02990196  RH  054%=      5-min Rain = 0
KCA1 152323Z 06010KT 30/20 A2978 RMK A01 T02980197  RH  054%=      5-min Rain = 0
KCA1 152324Z 06009KT 30/19 A2978 RMK A01 T02960194  RH  054%=      5-min Rain = 0
KCA1 152325Z 05010KT 30/19 A2978 RMK A01 T02950194  RH  055%=      5-min Rain = 0
KCA1 152326Z 06010KT 29/19 A2978 RMK A01 T02940193  RH  054%=      5-min Rain = 0
KCA1 152327Z 05009KT 29/19 A2978 RMK A01 T02940194  RH  055%=      5-min Rain = 0
KCA1 152328Z 06010KT 29/19 A2978 RMK A01 T02940194  RH  055%=      5-min Rain = 0
KCA1 152329Z 06007KT 30/19 A2978 RMK A01 T02950192  RH  054%=      5-min Rain = 0
KCA1 152330Z 07007KT 30/20 A2978 RMK A01 T02980198  RH  055%=      5-min Rain = 0
KCA1 152331Z 07009KT 30/20 A2978 RMK A01 T03000196  RH  054%=      5-min Rain = 0
KCA1 152332Z 07008KT 30/20 A2978 RMK A01 T03010196  RH  053%=      5-min Rain = 0
KCA1 152333Z 07010KT 30/20 A2978 RMK A01 T03010198  RH  054%=      5-min Rain = 0
KCA1 152334Z 07009KT 30/20 A2978 RMK A01 T03010196  RH  053%=      5-min Rain = 0
KCA1 152335Z 07008KT 30/20 A2978 RMK A01 T03010200  RH  055%=      5-min Rain = 0
KCA1 152336Z 07008KT 30/20 A2978 RMK A01 T03020198  RH  054%=      5-min Rain = 0
KCA1 152337Z 08007KT 30/20 A2978 RMK A01 T03020200  RH  054%=      5-min Rain = 0
KCA1 152338Z 08007KT 30/20 A2978 RMK A01 T03020201  RH  055%=      5-min Rain = 0
KCA1 152339Z 05007G12KT 30/20 A2978 RMK A01 T03010203  RH  056%=      5-min Rain = 0
KCA1 152340Z 06011KT 30/20 A2978 RMK A01 T03020199  RH  054%=      5-min Rain = 0
KCA1 152341Z 08011KT 30/20 A2978 RMK A01 T03010196  RH  053%=      5-min Rain = 0
KCA1 152342Z 09010KT 30/19 A2978 RMK A01 T02990193  RH  053%=      5-min Rain = 0
KCA1 152343Z 08010KT 30/19 A2978 RMK A01 T02980194  RH  054%=      5-min Rain = 0
KCA1 152344Z 08009KT 30/19 A2978 RMK A01 T02960192  RH  054%=      5-min Rain = 0
KCA1 152345Z 08008KT 30/19 A2978 RMK A01 T02950194  RH  055%=      5-min Rain = 0
KCA1 152346Z 07008KT 29/20 A2978 RMK A01 T02930196  RH  056%=      5-min Rain = 0
KCA1 152347Z 08008KT 29/20 A2977 RMK A01 T02920195  RH  056%=      5-min Rain = 0
KCA1 152348Z 08009KT 29/20 A2977 RMK A01 T02910195  RH  056%=      5-min Rain = 0
KCA1 152349Z 08008KT 29/20 A2977 RMK A01 T02910195  RH  056%=      5-min Rain = 0
KCA1 152350Z 08008KT 29/20 A2977 RMK A01 T02910198  RH  057%=      5-min Rain = 0
KCA1 152351Z 07008KT 29/20 A2977 RMK A01 T02910197  RH  057%=      5-min Rain = 0
KCA1 152352Z 07009KT 29/20 A2977 RMK A01 T02910195  RH  056%=      5-min Rain = 0
KCA1 152353Z 07009KT 29/19 A2977 RMK A01 T02910193  RH  056%=      5-min Rain = 0
KCA1 152354Z 07008KT 29/19 A2977 RMK A01 T02910193  RH  056%=      5-min Rain = 0
KCA1 152355Z 07008KT 29/19 A2977 RMK A01 T02900194  RH  056%=      5-min Rain = 0
KCA1 152356Z 07007KT 29/20 A2977 RMK A01 T02910196  RH  057%=      5-min Rain = 0
KCA1 152357Z 07007KT 29/20 A2977 RMK A01 T02910197  RH  057%=      5-min Rain = 0
KCA1 152358Z 07008KT 29/20 A2977 RMK A01 T02910195  RH  056%=      5-min Rain = 0
KCA1 152359Z 07006KT 29/20 A2977 RMK A01 T02900197  RH  057%=      5-min Rain = 0
KCA1 160000Z 07006KT 29/20 A2977 RMK A01 T02900195  RH  056%=      5-min Rain = 0
KCA1 160001Z 07007KT 29/19 A2977 RMK A01 T02900194  RH  056%=      5-min Rain = 0
KCA1 160002Z 07007KT 29/19 A2977 RMK A01 T02900193  RH  056%=      5-min Rain = 0
KCA1 160003Z 07007KT 29/19 A2977 RMK A01 T02900194  RH  056%=      5-min Rain = 0
KCA1 160004Z 07006KT 29/20 A2977 RMK A01 T02900196  RH  057%=      5-min Rain = 0
KCA1 160005Z 06006KT 29/20 A2977 RMK A01 T02900197  RH  057%=      5-min Rain = 0
KCA1 160006Z 06008KT 29/20 A2977 RMK A01 T02900197  RH  057%=      5-min Rain = 0
KCA1 160007Z 07008KT 29/20 A2977 RMK A01 T02900196  RH  057%=      5-min Rain = 0
KCA1 160008Z 07007KT 29/20 A2977 RMK A01 T02890196  RH  057%=      5-min Rain = 0
KCA1 160009Z 07007KT 29/20 A2977 RMK A01 T02890196  RH  057%=      5-min Rain = 0
KCA1 160010Z 07008KT 29/19 A2977 RMK A01 T02890194  RH  057%=      5-min Rain = 0
KCA1 160011Z 08006KT 29/20 A2978 RMK A01 T02880195  RH  057%=      5-min Rain = 0
KCA1 160012Z 08008KT 29/19 A2978 RMK A01 T02880194  RH  057%=      5-min Rain = 0
KCA1 160013Z 08009KT 29/19 A2978 RMK A01 T02870192  RH  056%=      5-min Rain = 0
KCA1 160014Z 08008KT 29/19 A2978 RMK A01 T02870193  RH  057%=      5-min Rain = 0
KCA1 160015Z 08008KT 29/19 A2978 RMK A01 T02870193  RH  057%=      5-min Rain = 0
KCA1 160016Z 08007KT 29/19 A2978 RMK A01 T02860194  RH  057%=      5-min Rain = 0
KCA1 160017Z 08007KT 29/20 A2978 RMK A01 T02860195  RH  058%=      5-min Rain = 0
KCA1 160018Z 07006KT 29/20 A2978 RMK A01 T02850196  RH  059%=      5-min Rain = 0
KCA1 160019Z 07006KT 28/20 A2978 RMK A01 T02840196  RH  059%=      5-min Rain = 0
KCA1 160020Z 07006KT 28/20 A2978 RMK A01 T02830197  RH  060%=      5-min Rain = 0
KCA1 160021Z 07006KT 28/20 A2979 RMK A01 T02820198  RH  060%=      5-min Rain = 0
KCA1 160022Z 07006KT 28/20 A2979 RMK A01 T02820198  RH  060%=      5-min Rain = 0
KCA1 160023Z 07006KT 28/20 A2979 RMK A01 T02820198  RH  060%=      5-min Rain = 0
KCA1 160024Z 07006KT 28/20 A2979 RMK A01 T02820197  RH  060%=      5-min Rain = 0
KCA1 160025Z 07006KT 28/20 A2979 RMK A01 T02810197  RH  060%=      5-min Rain = 0
KCA1 160026Z 07006KT 28/20 A2979 RMK A01 T02810197  RH  060%=      5-min Rain = 0
KCA1 160027Z 07006KT 28/20 A2979 RMK A01 T02810196  RH  060%=      5-min Rain = 0
KCA1 160028Z 07006KT 28/20 A2979 RMK A01 T02810197  RH  060%=      5-min Rain = 0
KCA1 160029Z 07006KT 28/20 A2979 RMK A01 T02810198  RH  061%=      5-min Rain = 0
KCA1 160030Z 07005KT 28/20 A2979 RMK A01 T02810198  RH  061%=      5-min Rain = 0
KCA1 160031Z 07005KT 28/20 A2979 RMK A01 T02810199  RH  061%=      5-min Rain = 0
KCA1 160032Z 07005KT 28/20 A2979 RMK A01 T02800200  RH  062%=      5-min Rain = 0
KCA1 160033Z 07005KT 28/20 A2979 RMK A01 T02800201  RH  062%=      5-min Rain = 0
KCA1 160034Z 07005KT 28/20 A2979 RMK A01 T02800201  RH  062%=      5-min Rain = 0
KCA1 160035Z 07005KT 28/20 A2979 RMK A01 T02800201  RH  062%=      5-min Rain = 0
KCA1 160036Z 07005KT 28/20 A298 RMK A01 T02800201  RH  062%=      5-min Rain = 0
KCA1 160037Z 07004KT 28/20 A298 RMK A01 T02800201  RH  062%=      5-min Rain = 0
KCA1 160038Z 07004KT 28/20 A298 RMK A01 T02790202  RH  063%=      5-min Rain = 0
KCA1 160039Z 07004KT 28/20 A298 RMK A01 T02790202  RH  063%=      5-min Rain = 0
KCA1 160040Z 07004KT 28/20 A298 RMK A01 T02790203  RH  063%=      5-min Rain = 0
KCA1 160041Z 06004KT 28/20 A298 RMK A01 T02780203  RH  064%=      5-min Rain = 0
KCA1 160042Z 07004KT 28/20 A298 RMK A01 T02780203  RH  064%=      5-min Rain = 0
KCA1 160043Z 06004KT 28/20 A298 RMK A01 T02770204  RH  064%=      5-min Rain = 0
KCA1 160044Z 06004KT 28/20 A298 RMK A01 T02770204  RH  064%=      5-min Rain = 0
KCA1 160045Z 06004KT 28/20 A298 RMK A01 T02770204  RH  064%=      5-min Rain = 0
KCA1 160046Z 06004KT 28/20 A298 RMK A01 T02770204  RH  065%=      5-min Rain = 0
KCA1 160047Z 05003KT 28/21 A298 RMK A01 T02760205  RH  065%=      5-min Rain = 0
KCA1 160048Z 05003KT 28/21 A298 RMK A01 T02750206  RH  066%=      5-min Rain = 0
KCA1 160049Z 05003KT 28/21 A298 RMK A01 T02750206  RH  066%=      5-min Rain = 0
KCA1 160050Z 05003KT 27/21 A298 RMK A01 T02740206  RH  066%=      5-min Rain = 0
KCA1 160051Z 05003KT 27/21 A298 RMK A01 T02730206  RH  067%=      5-min Rain = 0
KCA1 160052Z 05003KT 27/21 A298 RMK A01 T02730207  RH  067%=      5-min Rain = 0
KCA1 160053Z 06004KT 27/21 A298 RMK A01 T02720207  RH  068%=      5-min Rain = 0
KCA1 160054Z 05003KT 27/21 A298 RMK A01 T02720208  RH  068%=      5-min Rain = 0
KCA1 160055Z 05003KT 27/21 A298 RMK A01 T02710208  RH  068%=      5-min Rain = 0
KCA1 160056Z 05003KT 27/21 A298 RMK A01 T02710208  RH  069%=      5-min Rain = 0
KCA1 160057Z 04003KT 27/21 A298 RMK A01 T02700208  RH  069%=      5-min Rain = 0
KCA1 160058Z 04003KT 27/21 A298 RMK A01 T02700208  RH  069%=      5-min Rain = 0
KCA1 160059Z 04003KT 27/21 A298 RMK A01 T02690209  RH  069%=      5-min Rain = 0
KCA1 160100Z 04004KT 27/21 A298 RMK A01 T02690209  RH  070%=      5-min Rain = 0
KCA1 160101Z 03004KT 27/21 A298 RMK A01 T02680209  RH  070%=      5-min Rain = 0
KCA1 160102Z 03004KT 27/21 A298 RMK A01 T02680209  RH  070%=      5-min Rain = 0
KCA1 160103Z 03004KT 27/21 A298 RMK A01 T02670210  RH  071%=      5-min Rain = 0
KCA1 160104Z 03004KT 27/21 A298 RMK A01 T02670209  RH  071%=      5-min Rain = 0
KCA1 160105Z 03003KT 27/21 A298 RMK A01 T02660207  RH  070%=      5-min Rain = 0
KCA1 160106Z 04003KT 27/21 A298 RMK A01 T02660207  RH  070%=      5-min Rain = 0
KCA1 160107Z 04003KT 27/21 A298 RMK A01 T02660207  RH  070%=      5-min Rain = 0
KCA1 160108Z 05003KT 27/21 A298 RMK A01 T02660207  RH  070%=      5-min Rain = 0
KCA1 160109Z 04003KT 27/21 A298 RMK A01 T02660208  RH  070%=      5-min Rain = 0
KCA1 160110Z 04003KT 27/21 A2979 RMK A01 T02660210  RH  071%=      5-min Rain = 0
KCA1 160111Z 04004KT 27/21 A2979 RMK A01 T02650209  RH  071%=      5-min Rain = 0
KCA1 160112Z 04004KT 26/21 A2979 RMK A01 T02640209  RH  071%=      5-min Rain = 0
KCA1 160113Z 04005KT 26/21 A2979 RMK A01 T02640210  RH  072%=      5-min Rain = 0
KCA1 160114Z 04005KT 26/21 A2979 RMK A01 T02630211  RH  073%=      5-min Rain = 0
KCA1 160115Z 04006KT 26/21 A2978 RMK A01 T02620211  RH  073%=      5-min Rain = 0
KCA1 160116Z 04006KT 26/21 A2978 RMK A01 T02610210  RH  073%=      5-min Rain = 0
KCA1 160117Z 04007KT 26/21 A2978 RMK A01 T02600209  RH  073%=      5-min Rain = 0
KCA1 160118Z 04006KT 26/21 A2978 RMK A01 T02600209  RH  073%=      5-min Rain = 0
KCA1 160119Z 04007KT 26/21 A2977 RMK A01 T02590208  RH  073%=      5-min Rain = 0
KCA1 160120Z 04007KT 26/21 A2977 RMK A01 T02590208  RH  074%=      5-min Rain = 0
KCA1 160121Z 04007KT 26/21 A2977 RMK A01 T02580207  RH  073%=      5-min Rain = 0
KCA1 160122Z 04007KT 26/21 A2977 RMK A01 T02580207  RH  073%=      5-min Rain = 0
KCA1 160123Z 04006KT 26/21 A2977 RMK A01 T02580207  RH  073%=      5-min Rain = 0
KCA1 160124Z 03006KT 26/21 A2977 RMK A01 T02580207  RH  073%=      5-min Rain = 0
KCA1 160125Z 03006KT 26/21 A2977 RMK A01 T02570206  RH  073%=      5-min Rain = 0
KCA1 160126Z 03006KT 26/21 A2977 RMK A01 T02570205  RH  073%=      5-min Rain = 0
KCA1 160127Z 03005KT 26/21 A2977 RMK A01 T02570205  RH  073%=      5-min Rain = 0
KCA1 160128Z 03005KT 26/21 A2977 RMK A01 T02570205  RH  073%=      5-min Rain = 0
KCA1 160129Z 03004KT 26/21 A2977 RMK A01 T02570205  RH  073%=      5-min Rain = 0
KCA1 160130Z 03003KT 26/21 A2978 RMK A01 T02570205  RH  073%=      5-min Rain = 0
KCA1 160131Z 03003KT 26/21 A2978 RMK A01 T02570205  RH  073%=      5-min Rain = 0
KCA1 160132Z 03002KT 26/20 A2978 RMK A01 T02570204  RH  072%=      5-min Rain = 0
KCA1 160133Z 04002KT 26/20 A2978 RMK A01 T02570203  RH  072%=      5-min Rain = 0
KCA1 160134Z 04001KT 26/20 A2978 RMK A01 T02580202  RH  072%=      5-min Rain = 0
KCA1 160135Z 04001KT 26/20 A2978 RMK A01 T02580202  RH  071%=      5-min Rain = 0
KCA1 160136Z 05000KT 26/20 A2978 RMK A01 T02590202  RH  071%=      5-min Rain = 0
KCA1 160137Z 21004KT 26/21 A2978 RMK A01 T02590205  RH  072%=      5-min Rain = 0
KCA1 160138Z 20004KT 26/21 A2978 RMK A01 T02580207  RH  074%=      5-min Rain = 0
KCA1 160139Z 21004KT 26/21 A2978 RMK A01 T02550206  RH  074%=      5-min Rain = 0
KCA1 160140Z 21005KT 25/21 A2978 RMK A01 T02540207  RH  075%=      5-min Rain = 0
KCA1 160141Z 20007KT 25/21 A2979 RMK A01 T02530206  RH  075%=      5-min Rain = 0
KCA1 160142Z 21011G16KT 25/21 A298 RMK A01 T02530205  RH  075%=      5-min Rain = 0
KCA1 160143Z 23021G30KT 25/19 A298 RMK A01 T02530192  RH  069%=      5-min Rain = 0
KCA1 160144Z 24022G29KT 25/15 A2981 RMK A01 T02520148  RH  053%=      5-min Rain = 0
KCA1 160145Z 23020G26KT 25/13 A298 RMK A01 T02470129  RH  048%=      5-min Rain = 0
KCA1 160146Z 23022KT 24/12 A298 RMK A01 T02430123  RH  047%=      5-min Rain = 0
KCA1 160147Z 24019KT 24/12 A2981 RMK A01 T02410121  RH  047%=      5-min Rain = 0
KCA1 160148Z 24022KT 24/12 A2981 RMK A01 T02390117  RH  046%=      5-min Rain = 0
KCA1 160149Z 23017G24KT 24/12 A298 RMK A01 T02380116  RH  046%=      5-min Rain = 0
KCA1 160150Z 23017KT 24/12 A298 RMK A01 T02370117  RH  047%=      5-min Rain = 0
KCA1 160151Z 23024G31KT 24/12 A298 RMK A01 T02360115  RH  047%=      5-min Rain = 0
KCA1 160152Z 24023KT 24/11 A298 RMK A01 T02360114  RH  046%=      5-min Rain = 0
KCA1 160153Z 24024G31KT 24/11 A298 RMK A01 T02350113  RH  046%=      5-min Rain = 0
KCA1 160154Z 23028G41KT 24/11 A2979 RMK A01 T02350113  RH  046%=      5-min Rain = 0
KCA1 160155Z 23023G30KT 23/11 A298 RMK A01 T02340113  RH  047%=      5-min Rain = 0
KCA1 160156Z 23026G33KT 23/11 A298 RMK A01 T02340114  RH  047%=      5-min Rain = 0
KCA1 160157Z 23027KT 23/11 A2981 RMK A01 T02330113  RH  047%=      5-min Rain = 0
KCA1 160158Z 23018G24KT 23/11 A2981 RMK A01 T02330114  RH  047%=      5-min Rain = 0
KCA1 160159Z 23020G25KT 23/12 A2981 RMK A01 T02330115  RH  047%=      5-min Rain = 0
KCA1 160200Z 24020KT 23/12 A2981 RMK A01 T02320115  RH  048%=      5-min Rain = 0
KCA1 160201Z 24016KT 23/12 A2981 RMK A01 T02320115  RH  048%=      5-min Rain = 0
KCA1 160202Z 23014G21KT 23/12 A2982 RMK A01 T02300116  RH  049%=      5-min Rain = 0
KCA1 160203Z 24020G25KT 23/12 A2982 RMK A01 T02300117  RH  049%=      5-min Rain = 0
KCA1 160204Z 24019G24KT 23/12 A2982 RMK A01 T02290117  RH  049%=      5-min Rain = 0
KCA1 160205Z 24021KT 23/12 A2982 RMK A01 T02280118  RH  050%=      5-min Rain = 0
KCA1 160206Z 25015G21KT 23/12 A2982 RMK A01 T02270120  RH  051%=      5-min Rain = 0
KCA1 160207Z 25021G28KT 23/12 A2982 RMK A01 T02250121  RH  052%=      5-min Rain = 0
KCA1 160208Z 24019G25KT 22/12 A2983 RMK A01 T02230122  RH  053%=      5-min Rain = 0
KCA1 160209Z 25014G19KT 22/12 A2983 RMK A01 T02220123  RH  054%=      5-min Rain = 0
KCA1 160210Z 25018KT 22/13 A2983 RMK A01 T02200125  RH  055%=      5-min Rain = 0
KCA1 160211Z 24016KT 22/13 A2983 RMK A01 T02180127  RH  056%=      5-min Rain = 0
KCA1 160212Z 24017G23KT 22/13 A2983 RMK A01 T02150134  RH  060%=      5-min Rain = 0
KCA1 160213Z 24018KT 21/14 A2984 RMK A01 T02090141  RH  065%=      5-min Rain = 0
KCA1 160214Z 23023G29KT 20/14 A2984 RMK A01 T02010144  RH  070%=      5-min Rain = 0
KCA1 160215Z 23020G26KT 19/15 A2984 RMK A01 T01940147  RH  074%=      5-min Rain = 0.01
KCA1 160216Z 23021G27KT 19/15 A2984 RMK A01 T01890148  RH  077%=      5-min Rain = 0.01
KCA1 160217Z 23019G25KT 18/15 A2984 RMK A01 T01840149  RH  080%=      5-min Rain = 0.02
KCA1 160218Z 23019G25KT 18/15 A2984 RMK A01 T01800152  RH  084%=      5-min Rain = 0.02
KCA1 160219Z 22022KT 18/15 A2984 RMK A01 T01770149  RH  084%=      5-min Rain = 0.01
KCA1 160220Z 22020G25KT 18/15 A2984 RMK A01 T01760150  RH  085%=      5-min Rain = 0.01
KCA1 160221Z 22021KT 18/15 A2984 RMK A01 T01750150  RH  085%=      5-min Rain = 0
KCA1 160222Z 22022KT 18/15 A2984 RMK A01 T01750149  RH  085%=      5-min Rain = 0
KCA1 160223Z 22019KT 18/15 A2984 RMK A01 T01750149  RH  084%=      5-min Rain = 0.01
KCA1 160224Z 22020G25KT 18/15 A2984 RMK A01 T01760150  RH  085%=      5-min Rain = 0
KCA1 160225Z 22018G23KT 18/15 A2984 RMK A01 T01760150  RH  085%=      5-min Rain = 0
KCA1 160226Z 22018G24KT 18/15 A2984 RMK A01 T01760151  RH  085%=      5-min Rain = 0.01
KCA1 160227Z 22015KT 18/15 A2984 RMK A01 T01760151  RH  085%=      5-min Rain = 0
KCA1 160228Z 22015KT 18/15 A2983 RMK A01 T01750153  RH  087%=      5-min Rain = 0
KCA1 160229Z 22017G23KT 17/15 A2983 RMK A01 T01740151  RH  086%=      5-min Rain = 0
KCA1 160230Z 22016G22KT 17/15 A2983 RMK A01 T01740152  RH  087%=      5-min Rain = 0
KCA1 160231Z 22015G20KT 18/15 A2983 RMK A01 T01750152  RH  087%=      5-min Rain = 0.01
KCA1 160232Z 23018G23KT 18/15 A2983 RMK A01 T01750151  RH  086%=      5-min Rain = 0
KCA1 160233Z 22017KT 18/15 A2983 RMK A01 T01760151  RH  086%=      5-min Rain = 0
KCA1 160234Z 23016KT 18/15 A2983 RMK A01 T01760152  RH  086%=      5-min Rain = 0
KCA1 160235Z 22017G22KT 18/15 A2983 RMK A01 T01760153  RH  086%=      5-min Rain = 0
KCA1 160236Z 23017KT 18/15 A2983 RMK A01 T01760152  RH  086%=      5-min Rain = 0
KCA1 160237Z 23016KT 18/15 A2983 RMK A01 T01770152  RH  085%=      5-min Rain = 0.01
KCA1 160238Z 23015G23KT 18/15 A2982 RMK A01 T01770154  RH  086%=      5-min Rain = 0
KCA1 160239Z 23018KT 18/15 A2982 RMK A01 T01760152  RH  086%=      5-min Rain = 0
KCA1 160240Z 22019G24KT 18/15 A2982 RMK A01 T01770151  RH  085%=      5-min Rain = 0
KCA1 160241Z 22019KT 18/15 A2982 RMK A01 T01780150  RH  084%=      5-min Rain = 0.01
KCA1 160242Z 23018KT 18/15 A2982 RMK A01 T01790150  RH  083%=      5-min Rain = 0
KCA1 160243Z 23019KT 18/15 A2981 RMK A01 T01790150  RH  083%=      5-min Rain = 0
KCA1 160244Z 23016G22KT 18/15 A2981 RMK A01 T01800150  RH  083%=      5-min Rain = 0
KCA1 160245Z 23016KT 18/15 A2981 RMK A01 T01790151  RH  083%=      5-min Rain = 0.01
KCA1 160246Z 23017G22KT 18/15 A2981 RMK A01 T01790150  RH  083%=      5-min Rain = 0
KCA1 160247Z 22020G25KT 18/15 A2981 RMK A01 T01800148  RH  082%=      5-min Rain = 0
KCA1 160248Z 23017KT 18/15 A2981 RMK A01 T01810148  RH  081%=      5-min Rain = 0
KCA1 160249Z 22016KT 18/15 A2981 RMK A01 T01810150  RH  082%=      5-min Rain = 0
KCA1 160250Z 23017G22KT 18/15 A298 RMK A01 T01810150  RH  082%=      5-min Rain = 0
KCA1 160251Z 23017KT 18/15 A298 RMK A01 T01800150  RH  083%=      5-min Rain = 0
KCA1 160252Z 23018KT 18/15 A298 RMK A01 T01800149  RH  082%=      5-min Rain = 0
KCA1 160253Z 23020KT 18/15 A2979 RMK A01 T01810147  RH  081%=      5-min Rain = 0
KCA1 160254Z 23020G26KT 18/15 A2979 RMK A01 T01830146  RH  079%=      5-min Rain = 0
KCA1 160255Z 23019KT 19/15 A2979 RMK A01 T01850147  RH  078%=      5-min Rain = 0
KCA1 160256Z 23023G28KT 19/15 A2978 RMK A01 T01850146  RH  078%=      5-min Rain = 0
KCA1 160257Z 22023G29KT 19/14 A2978 RMK A01 T01870143  RH  076%=      5-min Rain = 0
KCA1 160258Z 22020G25KT 19/14 A2977 RMK A01 T01890143  RH  075%=      5-min Rain = 0
KCA1 160259Z 22021KT 19/15 A2977 RMK A01 T01900145  RH  075%=      5-min Rain = 0
KCA1 160300Z 22018KT 19/14 A2977 RMK A01 T01900144  RH  075%=      5-min Rain = 0
KCA1 160301Z 22019G27KT 19/15 A2977 RMK A01 T01890145  RH  075%=      5-min Rain = 0
KCA1 160302Z 22020G25KT 19/14 A2977 RMK A01 T01900143  RH  074%=      5-min Rain = 0
KCA1 160303Z 22021G26KT 19/14 A2977 RMK A01 T01910142  RH  073%=      5-min Rain = 0
KCA1 160304Z 22022G28KT 19/14 A2977 RMK A01 T01920143  RH  073%=      5-min Rain = 0
KCA1 160305Z 22022KT 19/14 A2976 RMK A01 T01930141  RH  072%=      5-min Rain = 0
KCA1 160306Z 22020G27KT 20/14 A2977 RMK A01 T01950142  RH  072%=      5-min Rain = 0
KCA1 160307Z 22019KT 20/14 A2977 RMK A01 T01950144  RH  073%=      5-min Rain = 0
KCA1 160308Z 22023G28KT 19/14 A2976 RMK A01 T01940142  RH  072%=      5-min Rain = 0
KCA1 160309Z 21022KT 20/14 A2976 RMK A01 T01950140  RH  071%=      5-min Rain = 0
KCA1 160310Z 21023G28KT 20/14 A2976 RMK A01 T01960141  RH  071%=      5-min Rain = 0
KCA1 160311Z 21022G28KT 20/14 A2977 RMK A01 T01970141  RH  070%=      5-min Rain = 0
KCA1 160312Z 22021G27KT 20/14 A2977 RMK A01 T01980141  RH  070%=      5-min Rain = 0
KCA1 160313Z 22020KT 20/14 A2977 RMK A01 T01980141  RH  069%=      5-min Rain = 0
KCA1 160314Z 22022G28KT 20/14 A2978 RMK A01 T01990139  RH  069%=      5-min Rain = 0
KCA1 160315Z 22019G24KT 20/14 A2978 RMK A01 T01990140  RH  068%=      5-min Rain = 0
KCA1 160316Z 22018KT 20/14 A2978 RMK A01 T02000142  RH  069%=      5-min Rain = 0
KCA1 160317Z 22020KT 20/14 A2979 RMK A01 T01990140  RH  069%=      5-min Rain = 0
KCA1 160318Z 22016G23KT 20/14 A2979 RMK A01 T02000141  RH  069%=      5-min Rain = 0
KCA1 160319Z 22016G21KT 20/14 A2979 RMK A01 T02000141  RH  069%=      5-min Rain = 0
KCA1 160320Z 22017KT 20/14 A2979 RMK A01 T01990141  RH  069%=      5-min Rain = 0
KCA1 160321Z 23013KT 20/14 A2979 RMK A01 T01990141  RH  069%=      5-min Rain = 0
KCA1 160322Z 22013KT 20/14 A298 RMK A01 T02000141  RH  069%=      5-min Rain = 0
KCA1 160323Z 23013KT 20/14 A298 RMK A01 T01990142  RH  070%=      5-min Rain = 0
KCA1 160324Z 23013G18KT 20/14 A298 RMK A01 T01990142  RH  070%=      5-min Rain = 0
KCA1 160325Z 23012G17KT 20/14 A298 RMK A01 T01980141  RH  069%=      5-min Rain = 0
KCA1 160326Z 23013KT 20/14 A298 RMK A01 T01990141  RH  069%=      5-min Rain = 0
KCA1 160327Z 23014KT 20/14 A298 RMK A01 T01990140  RH  069%=      5-min Rain = 0
KCA1 160328Z 24011KT 20/14 A2981 RMK A01 T02000142  RH  069%=      5-min Rain = 0
KCA1 160329Z 25009KT 20/14 A2981 RMK A01 T01990144  RH  071%=      5-min Rain = 0
KCA1 160330Z 25006KT 20/14 A2981 RMK A01 T01980144  RH  071%=      5-min Rain = 0
KCA1 160331Z 25007KT 20/14 A2981 RMK A01 T01970144  RH  072%=      5-min Rain = 0
KCA1 160332Z 25009KT 20/14 A2981 RMK A01 T01960141  RH  070%=      5-min Rain = 0
KCA1 160333Z 24011KT 20/14 A2981 RMK A01 T01980142  RH  070%=      5-min Rain = 0
KCA1 160334Z 25010KT 20/14 A2981 RMK A01 T01980141  RH  070%=      5-min Rain = 0
KCA1 160335Z 25008KT 20/14 A2981 RMK A01 T01990142  RH  070%=      5-min Rain = 0
KCA1 160336Z 26007KT 20/14 A2981 RMK A01 T01990143  RH  070%=      5-min Rain = 0
KCA1 160337Z 26006KT 20/14 A2981 RMK A01 T01990143  RH  070%=      5-min Rain = 0
KCA1 160338Z 28006KT 20/14 A2981 RMK A01 T01990143  RH  070%=      5-min Rain = 0
KCA1 160339Z 29006KT 20/15 A2981 RMK A01 T01980145  RH  071%=      5-min Rain = 0
KCA1 160340Z 30006KT 20/14 A2981 RMK A01 T01970143  RH  071%=      5-min Rain = 0
KCA1 160341Z 30005KT 20/14 A2981 RMK A01 T01980144  RH  071%=      5-min Rain = 0
KCA1 160342Z 29006KT 20/15 A298 RMK A01 T01970145  RH  072%=      5-min Rain = 0
KCA1 160343Z 29006KT 20/15 A298 RMK A01 T01970145  RH  072%=      5-min Rain = 0
KCA1 160344Z 29008KT 20/14 A298 RMK A01 T01970143  RH  071%=      5-min Rain = 0
KCA1 160345Z 28009KT 20/14 A298 RMK A01 T01970142  RH  070%=      5-min Rain = 0
KCA1 160346Z 29009KT 20/14 A2981 RMK A01 T01980143  RH  070%=      5-min Rain = 0
KCA1 160347Z 29009KT 20/14 A2981 RMK A01 T01980144  RH  071%=      5-min Rain = 0
KCA1 160348Z 29009KT 20/14 A298 RMK A01 T01980142  RH  070%=      5-min Rain = 0
KCA1 160349Z 29008KT 20/14 A298 RMK A01 T01980143  RH  070%=      5-min Rain = 0
KCA1 160350Z 29008KT 20/14 A298 RMK A01 T01990144  RH  071%=      5-min Rain = 0
KCA1 160351Z 29010KT 20/14 A298 RMK A01 T01980144  RH  071%=      5-min Rain = 0
KCA1 160352Z 29008KT 20/15 A2981 RMK A01 T01980145  RH  071%=      5-min Rain = 0
KCA1 160353Z 29008KT 20/15 A2981 RMK A01 T01970145  RH  072%=      5-min Rain = 0
KCA1 160354Z 30007KT 20/15 A2981 RMK A01 T01970145  RH  072%=      5-min Rain = 0
KCA1 160355Z 31008KT 20/15 A2981 RMK A01 T01960145  RH  072%=      5-min Rain = 0
KCA1 160356Z 30009KT 20/15 A2981 RMK A01 T01960146  RH  073%=      5-min Rain = 0
KCA1 160357Z 32009KT 20/15 A2982 RMK A01 T01960148  RH  074%=      5-min Rain = 0
KCA1 160358Z 33010KT 20/15 A2982 RMK A01 T01950151  RH  076%=      5-min Rain = 0
KCA1 160359Z 33010KT 19/15 A2982 RMK A01 T01930150  RH  076%=      5-min Rain = 0
KCA1 160400Z 32011KT 19/15 A2982 RMK A01 T01920151  RH  077%=      5-min Rain = 0
KCA1 160401Z 32012KT 19/15 A2983 RMK A01 T01910151  RH  078%=      5-min Rain = 0
KCA1 160402Z 32014KT 19/15 A2983 RMK A01 T01900152  RH  078%=      5-min Rain = 0
KCA1 160403Z 32014KT 19/15 A2984 RMK A01 T01890152  RH  079%=      5-min Rain = 0
KCA1 160404Z 30016KT 19/15 A2985 RMK A01 T01890151  RH  079%=      5-min Rain = 0
KCA1 160405Z 29020G25KT 19/15 A2985 RMK A01 T01900149  RH  077%=      5-min Rain = 0
KCA1 160406Z 29022KT 19/15 A2986 RMK A01 T01930148  RH  075%=      5-min Rain = 0
KCA1 160407Z 29019KT 19/15 A2987 RMK A01 T01940150  RH  075%=      5-min Rain = 0
KCA1 160408Z 29017KT 19/15 A2987 RMK A01 T01930152  RH  077%=      5-min Rain = 0
KCA1 160409Z 28021G28KT 19/15 A2987 RMK A01 T01910150  RH  077%=      5-min Rain = 0
KCA1 160410Z 28021KT 19/15 A2987 RMK A01 T01910147  RH  075%=      5-min Rain = 0
KCA1 160411Z 28023G33KT 19/15 A2987 RMK A01 T01930150  RH  076%=      5-min Rain = 0
KCA1 160412Z 27021G28KT 19/15 A2988 RMK A01 T01900153  RH  079%=      5-min Rain = 0.01
KCA1 160413Z 29028G34KT 19/15 A2988 RMK A01 T01870151  RH  080%=      5-min Rain = 0
KCA1 160414Z 29031G38KT 19/15 A2988 RMK A01 T01850149  RH  080%=      5-min Rain = 0
KCA1 160415Z 28030G37KT 18/15 A2988 RMK A01 T01810148  RH  081%=      5-min Rain = 0
KCA1 160416Z 29022G27KT 18/15 A2989 RMK A01 T01770150  RH  084%=      5-min Rain = 0.01
KCA1 160417Z 29023G30KT 17/15 A2989 RMK A01 T01730151  RH  087%=      5-min Rain = 0.01
KCA1 160418Z 29024G33KT 17/15 A2989 RMK A01 T01710151  RH  088%=      5-min Rain = 0
KCA1 160419Z 29028G35KT 17/15 A2989 RMK A01 T01690151  RH  089%=      5-min Rain = 0
KCA1 160420Z 29026G33KT 17/15 A299 RMK A01 T01690150  RH  089%=      5-min Rain = 0.01
KCA1 160421Z 30030G36KT 17/15 A2989 RMK A01 T01680150  RH  089%=      5-min Rain = 0
KCA1 160422Z 30028G34KT 17/15 A2989 RMK A01 T01680149  RH  089%=      5-min Rain = 0
KCA1 160423Z 30028G34KT 17/15 A2989 RMK A01 T01680149  RH  089%=      5-min Rain = 0
KCA1 160424Z 30029G37KT 17/15 A2989 RMK A01 T01670149  RH  089%=      5-min Rain = 0
KCA1 160425Z 30026KT 17/15 A2989 RMK A01 T01670149  RH  089%=      5-min Rain = 0
KCA1 160426Z 30028G36KT 17/15 A2989 RMK A01 T01670149  RH  089%=      5-min Rain = 0
KCA1 160427Z 30027G35KT 17/15 A2989 RMK A01 T01670148  RH  089%=      5-min Rain = 0
KCA1 160428Z 30027G35KT 17/15 A2989 RMK A01 T01670148  RH  088%=      5-min Rain = 0
KCA1 160429Z 30028G34KT 17/15 A2989 RMK A01 T01670148  RH  088%=      5-min Rain = 0
KCA1 160430Z 29028G33KT 17/15 A2989 RMK A01 T01680148  RH  088%=      5-min Rain = 0
KCA1 160431Z 30026KT 17/15 A2989 RMK A01 T01680147  RH  087%=      5-min Rain = 0
KCA1 160432Z 30026G33KT 17/15 A2989 RMK A01 T01690149  RH  088%=      5-min Rain = 0
KCA1 160433Z 30024G34KT 17/15 A2989 RMK A01 T01680148  RH  088%=      5-min Rain = 0
KCA1 160434Z 29023G31KT 17/15 A2989 RMK A01 T01680149  RH  088%=      5-min Rain = 0
KCA1 160435Z 30029G35KT 17/15 A2988 RMK A01 T01680148  RH  088%=      5-min Rain = 0
KCA1 160436Z 30022KT 17/15 A2988 RMK A01 T01680148  RH  088%=      5-min Rain = 0
KCA1 160437Z 30021G27KT 17/15 A2988 RMK A01 T01680149  RH  089%=      5-min Rain = 0
KCA1 160438Z 29024G31KT 17/15 A2988 RMK A01 T01670149  RH  089%=      5-min Rain = 0
KCA1 160439Z 30020G25KT 17/15 A2988 RMK A01 T01670149  RH  089%=      5-min Rain = 0
KCA1 160440Z 30024G29KT 17/15 A2988 RMK A01 T01680150  RH  089%=      5-min Rain = 0
KCA1 160441Z 29024KT 17/15 A2988 RMK A01 T01670149  RH  089%=      5-min Rain = 0
KCA1 160442Z 29025G30KT 17/15 A2988 RMK A01 T01680148  RH  088%=      5-min Rain = 0
KCA1 160443Z 29024G30KT 17/15 A2989 RMK A01 T01680149  RH  089%=      5-min Rain = 0.01
KCA1 160444Z 29020KT 17/15 A2989 RMK A01 T01680150  RH  089%=      5-min Rain = 0
KCA1 160445Z 29019KT 17/15 A2989 RMK A01 T01670151  RH  090%=      5-min Rain = 0
KCA1 160446Z 29022G27KT 17/15 A2988 RMK A01 T01670151  RH  090%=      5-min Rain = 0
KCA1 160447Z 29023G29KT 17/15 A2988 RMK A01 T01670150  RH  090%=      5-min Rain = 0
KCA1 160448Z 30022G29KT 17/15 A2988 RMK A01 T01670150  RH  090%=      5-min Rain = 0
KCA1 160449Z 30019G25KT 17/15 A2988 RMK A01 T01670150  RH  090%=      5-min Rain = 0
KCA1 160450Z 29020KT 17/15 A2988 RMK A01 T01670151  RH  090%=      5-min Rain = 0
KCA1 160451Z 30025G31KT 17/15 A2988 RMK A01 T01670151  RH  090%=      5-min Rain = 0.01
KCA1 160452Z 30023G28KT 17/15 A2988 RMK A01 T01670150  RH  090%=      5-min Rain = 0
KCA1 160453Z 29025G31KT 17/15 A2987 RMK A01 T01670150  RH  090%=      5-min Rain = 0
KCA1 160454Z 29024G30KT 17/15 A2987 RMK A01 T01670150  RH  089%=      5-min Rain = 0
KCA1 160455Z 29026G34KT 17/15 A2987 RMK A01 T01680149  RH  089%=      5-min Rain = 0
KCA1 160456Z 30024G33KT 17/15 A2988 RMK A01 T01680149  RH  089%=      5-min Rain = 0
KCA1 160457Z 29023G30KT 17/15 A2987 RMK A01 T01680150  RH  089%=      5-min Rain = 0
KCA1 160458Z 29024G29KT 17/15 A2987 RMK A01 T01680150  RH  089%=      5-min Rain = 0
KCA1 160459Z 29020KT 17/15 A2987 RMK A01 T01680150  RH  089%=      5-min Rain = 0

Page generated in 0.0737 seconds.